Time,TemperatureF,DewpointF,PressureIn,WindDirection,WindDirectionDegrees,WindSpeedMPH,WindSpeedGustMPH,Humidity,HourlyPrecipIn,Conditions,Clouds,dailyrainin,SoftwareType,DateUTC
2013-04-24 00:00:00,60.1,44.3,29.97,SSE,158,0.0,0.0,56,0.00,CLR,,0.00,WeatherDisplay:10.37,2013-04-23 21:00:00,
2013-04-24 00:01:00,60.1,44.3,29.97,SSE,158,0.0,0.0,56,0.00,CLR,,0.00,WeatherDisplay:10.37,2013-04-23 21:01:00,
2013-04-24 00:02:00,60.1,44.3,29.97,SSE,158,0.0,0.0,56,0.00,CLR,,0.00,WeatherDisplay:10.37,2013-04-23 21:02:00,
2013-04-24 00:03:00,60.1,43.9,29.97,SSE,158,0.0,0.0,55,0.00,CLR,,0.00,WeatherDisplay:10.37,2013-04-23 21:03:00,
2013-04-24 00:05:00,59.9,43.7,29.97,SSE,158,0.0,0.0,55,0.00,CLR,,0.00,WeatherDisplay:10.37,2013-04-23 21:05:00,
2013-04-24 00:06:00,59.9,43.7,29.97,SSE,158,0.0,0.0,55,0.00,CLR,,0.00,WeatherDisplay:10.37,2013-04-23 21:06:00,
2013-04-24 00:07:00,59.9,43.7,29.97,SSE,158,0.0,0.0,55,0.00,CLR,,0.00,WeatherDisplay:10.37,2013-04-23 21:07:00,
2013-04-24 00:08:00,59.9,44.2,29.97,SSE,158,0.0,0.0,56,0.00,CLR,,0.00,WeatherDisplay:10.37,2013-04-23 21:08:00,
2013-04-24 00:10:00,59.9,44.2,29.97,SSE,158,0.0,0.0,56,0.00,CLR,,0.00,WeatherDisplay:10.37,2013-04-23 21:10:00,
2013-04-24 00:11:00,59.9,44.2,29.97,SSE,158,0.0,0.0,56,0.00,CLR,,0.00,WeatherDisplay:10.37,2013-04-23 21:11:00,
2013-04-24 00:13:00,59.9,43.7,29.97,SSE,158,0.0,0.0,55,0.00,CLR,,0.00,WeatherDisplay:10.37,2013-04-23 21:13:00,
2013-04-24 00:14:00,59.9,43.7,29.97,SSE,158,0.0,0.0,55,0.00,CLR,,0.00,WeatherDisplay:10.37,2013-04-23 21:14:00,
2013-04-24 00:15:00,59.9,44.2,29.97,SSE,158,0.0,0.0,56,0.00,CLR,,0.00,WeatherDisplay:10.37,2013-04-23 21:15:00,
2013-04-24 00:17:00,59.9,44.2,29.97,East,90,0.0,0.0,56,0.00,CLR,,0.00,WeatherDisplay:10.37,2013-04-23 21:17:00,
2013-04-24 00:18:00,59.9,44.2,29.97,East,90,0.0,0.0,56,0.00,CLR,,0.00,WeatherDisplay:10.37,2013-04-23 21:18:00,
2013-04-24 00:19:00,59.9,44.2,29.97,East,90,0.0,0.0,56,0.00,CLR,,0.00,WeatherDisplay:10.37,2013-04-23 21:19:00,
2013-04-24 00:20:00,59.9,44.2,29.97,East,90,0.0,0.0,56,0.00,CLR,,0.00,WeatherDisplay:10.37,2013-04-23 21:20:00,
2013-04-24 00:22:00,59.9,44.2,29.97,East,90,0.0,0.0,56,0.00,CLR,,0.00,WeatherDisplay:10.37,2013-04-23 21:22:00,
2013-04-24 00:23:00,59.9,44.2,29.94,East,90,0.0,0.0,56,0.00,CLR,,0.00,WeatherDisplay:10.37,2013-04-23 21:23:00,
2013-04-24 00:24:00,59.9,44.2,29.94,East,90,0.0,0.0,56,0.00,CLR,,0.00,WeatherDisplay:10.37,2013-04-23 21:24:00,
2013-04-24 00:25:00,59.9,44.2,29.94,East,90,0.0,0.0,56,0.00,CLR,,0.00,WeatherDisplay:10.37,2013-04-23 21:25:00,
2013-04-24 00:26:00,59.9,44.2,29.94,East,90,0.0,0.0,56,0.00,CLR,,0.00,WeatherDisplay:10.37,2013-04-23 21:26:00,
2013-04-24 00:28:00,59.9,44.2,29.94,East,90,0.0,0.0,56,0.00,CLR,,0.00,WeatherDisplay:10.37,2013-04-23 21:28:00,
2013-04-24 00:29:00,60.1,44.3,29.94,East,90,0.0,0.0,56,0.00,CLR,,0.00,WeatherDisplay:10.37,2013-04-23 21:29:00,
2013-04-24 00:31:00,60.1,44.3,29.94,East,90,0.0,0.0,56,0.00,CLR,,0.00,WeatherDisplay:10.37,2013-04-23 21:31:00,
2013-04-24 00:32:00,59.9,44.2,29.94,East,90,0.0,0.0,56,0.00,CLR,,0.00,WeatherDisplay:10.37,2013-04-23 21:32:00,
2013-04-24 00:33:00,59.9,44.2,29.94,East,90,0.0,0.0,56,0.00,CLR,,0.00,WeatherDisplay:10.37,2013-04-23 21:33:00,
2013-04-24 00:34:00,59.9,44.2,29.94,East,90,0.0,0.0,56,0.00,CLR,,0.00,WeatherDisplay:10.37,2013-04-23 21:34:00,
2013-04-24 00:36:00,59.9,44.2,29.94,ENE,68,0.0,0.0,56,0.00,CLR,,0.00,WeatherDisplay:10.37,2013-04-23 21:36:00,
2013-04-24 00:37:00,59.9,44.2,29.94,NE,45,1.2,0.0,56,0.00,CLR,,0.00,WeatherDisplay:10.37,2013-04-23 21:37:00,
2013-04-24 00:38:00,59.9,44.2,29.97,NE,45,1.2,0.0,56,0.00,CLR,,0.00,WeatherDisplay:10.37,2013-04-23 21:38:00,
2013-04-24 00:39:00,59.9,44.2,29.97,NE,45,1.2,0.0,56,0.00,CLR,,0.00,WeatherDisplay:10.37,2013-04-23 21:39:00,
2013-04-24 00:41:00,59.9,44.2,29.97,ENE,68,2.3,0.0,56,0.00,CLR,,0.00,WeatherDisplay:10.37,2013-04-23 21:41:00,
2013-04-24 00:42:00,59.9,44.2,29.97,ENE,68,2.3,2.3,56,0.00,CLR,,0.00,WeatherDisplay:10.37,2013-04-23 21:42:00,
2013-04-24 00:43:00,59.9,44.2,29.97,NE,45,3.5,3.5,56,0.00,CLR,,0.00,WeatherDisplay:10.37,2013-04-23 21:43:00,
2013-04-24 00:44:00,59.9,44.2,29.97,ENE,68,2.3,2.3,56,0.00,CLR,,0.00,WeatherDisplay:10.37,2013-04-23 21:44:00,
2013-04-24 00:45:00,59.9,44.2,29.97,ESE,112,0.0,0.0,56,0.00,CLR,,0.00,WeatherDisplay:10.37,2013-04-23 21:45:00,
2013-04-24 00:46:00,59.9,44.2,29.97,ESE,112,0.0,0.0,56,0.00,CLR,,0.00,WeatherDisplay:10.37,2013-04-23 21:46:00,
2013-04-24 00:47:00,59.9,43.7,29.97,ESE,112,0.0,0.0,55,0.00,CLR,,0.00,WeatherDisplay:10.37,2013-04-23 21:47:00,
2013-04-24 00:48:00,59.9,43.7,29.97,NE,45,0.9,0.0,55,0.00,CLR,,0.00,WeatherDisplay:10.37,2013-04-23 21:48:00,
2013-04-24 00:49:00,59.7,43.5,29.97,North,0,2.3,2.3,55,0.00,CLR,,0.00,WeatherDisplay:10.37,2013-04-23 21:49:00,
2013-04-24 00:50:00,59.7,43.5,29.97,North,0,2.3,2.3,55,0.00,CLR,,0.00,WeatherDisplay:10.37,2013-04-23 21:50:00,
2013-04-24 00:52:00,59.7,43.5,29.97,ENE,68,3.5,3.5,55,0.00,CLR,,0.00,WeatherDisplay:10.37,2013-04-23 21:52:00,
2013-04-24 00:53:00,59.7,43.0,29.97,East,90,2.3,2.3,54,0.00,CLR,,0.00,WeatherDisplay:10.37,2013-04-23 21:53:00,
2013-04-24 00:55:00,59.9,42.7,29.97,East,90,2.3,2.3,53,0.00,CLR,,0.00,WeatherDisplay:10.37,2013-04-23 21:55:00,
2013-04-24 00:57:00,59.7,42.6,29.97,East,90,0.0,0.0,53,0.00,CLR,,0.00,WeatherDisplay:10.37,2013-04-23 21:57:00,
2013-04-24 00:58:00,59.7,42.6,29.97,East,90,0.0,0.0,53,0.00,CLR,,0.00,WeatherDisplay:10.37,2013-04-23 21:58:00,
2013-04-24 01:00:00,59.7,42.6,29.97,East,85,0.0,0.0,53,0.00,CLR,,0.00,WeatherDisplay:10.37,2013-04-23 22:00:00,
2013-04-24 01:02:00,59.7,42.1,29.97,NE,45,4.6,4.6,52,0.00,CLR,,0.00,WeatherDisplay:10.37,2013-04-23 22:02:00,
2013-04-24 01:03:00,59.7,41.6,29.97,NE,45,1.2,0.0,51,0.00,CLR,,0.00,WeatherDisplay:10.37,2013-04-23 22:03:00,
2013-04-24 01:05:00,59.7,41.6,29.97,ENE,64,0.0,5.0,51,0.00,CLR,,0.00,WeatherDisplay:10.37,2013-04-23 22:05:00,
2013-04-24 01:07:00,59.5,40.9,29.97,NE,45,0.0,0.0,50,0.00,CLR,,0.00,WeatherDisplay:10.37,2013-04-23 22:07:00,
2013-04-24 01:08:00,59.7,41.0,29.97,NNE,22,2.3,2.3,50,0.00,CLR,,0.00,WeatherDisplay:10.37,2013-04-23 22:08:00,
2013-04-24 01:10:00,59.7,41.0,29.97,North,0,0.0,0.0,50,0.00,CLR,,0.00,WeatherDisplay:10.37,2013-04-23 22:10:00,
2013-04-24 01:12:00,59.7,41.0,29.97,NNE,22,0.0,0.0,50,0.00,CLR,,0.00,WeatherDisplay:10.37,2013-04-23 22:12:00,
2013-04-24 01:13:00,59.5,40.9,29.97,NNE,22,2.0,2.0,50,0.00,CLR,,0.00,WeatherDisplay:10.37,2013-04-23 22:13:00,
2013-04-24 01:14:00,59.7,41.0,29.97,NNE,22,2.3,2.3,50,0.00,CLR,,0.00,WeatherDisplay:10.37,2013-04-23 22:14:00,
2013-04-24 01:15:00,59.7,41.0,29.97,NNE,22,1.2,0.0,50,0.00,CLR,,0.00,WeatherDisplay:10.37,2013-04-23 22:15:00,
2013-04-24 01:17:00,59.7,41.0,29.97,North,0,0.0,0.0,50,0.00,CLR,,0.00,WeatherDisplay:10.37,2013-04-23 22:17:00,
2013-04-24 01:19:00,59.7,41.0,29.97,North,0,3.5,3.5,50,0.00,CLR,,0.00,WeatherDisplay:10.37,2013-04-23 22:19:00,
2013-04-24 01:20:00,59.7,41.6,29.97,NNW,338,0.0,0.0,51,0.00,CLR,,0.00,WeatherDisplay:10.37,2013-04-23 22:20:00,
2013-04-24 01:21:00,59.7,41.6,29.97,NNW,338,0.0,0.0,51,0.00,CLR,,0.00,WeatherDisplay:10.37,2013-04-23 22:21:00,
2013-04-24 01:22:00,59.9,41.7,29.97,North,0,3.3,0.0,51,0.00,CLR,,0.00,WeatherDisplay:10.37,2013-04-23 22:22:00,
2013-04-24 01:24:00,59.9,42.2,29.97,NNW,338,0.0,0.0,52,0.00,CLR,,0.00,WeatherDisplay:10.37,2013-04-23 22:24:00,
2013-04-24 01:26:00,59.9,42.2,29.97,NNW,338,2.3,2.3,52,0.00,CLR,,0.00,WeatherDisplay:10.37,2013-04-23 22:26:00,
2013-04-24 01:27:00,59.9,42.7,29.97,NNW,338,2.3,2.3,53,0.00,CLR,,0.00,WeatherDisplay:10.37,2013-04-23 22:27:00,
2013-04-24 01:29:00,60.1,43.4,29.97,NNW,338,3.5,3.5,54,0.00,CLR,,0.00,WeatherDisplay:10.37,2013-04-23 22:29:00,
2013-04-24 01:31:00,60.1,43.4,29.97,North,0,2.3,2.3,54,0.00,CLR,,0.00,WeatherDisplay:10.37,2013-04-23 22:31:00,
2013-04-24 01:32:00,60.1,43.4,29.97,ENE,68,1.4,0.0,54,0.00,CLR,,0.00,WeatherDisplay:10.37,2013-04-23 22:32:00,
2013-04-24 01:35:00,60.1,43.4,29.97,NE,45,2.3,0.0,54,0.00,CLR,,0.00,WeatherDisplay:10.37,2013-04-23 22:35:00,
2013-04-24 01:36:00,59.9,42.7,29.97,NNE,22,0.0,0.0,53,0.00,CLR,,0.00,WeatherDisplay:10.37,2013-04-23 22:36:00,
2013-04-24 01:37:00,59.9,42.7,29.97,NNE,22,0.0,0.0,53,0.00,CLR,,0.00,WeatherDisplay:10.37,2013-04-23 22:37:00,
2013-04-24 01:40:00,60.1,42.9,29.94,North,0,1.2,0.0,53,0.00,CLR,,0.00,WeatherDisplay:10.37,2013-04-23 22:40:00,
2013-04-24 01:41:00,60.1,42.9,29.94,NNW,338,0.0,0.0,53,0.00,CLR,,0.00,WeatherDisplay:10.37,2013-04-23 22:41:00,
2013-04-24 01:43:00,60.1,42.9,29.94,NNW,338,1.2,1.2,53,0.00,CLR,,0.00,WeatherDisplay:10.37,2013-04-23 22:43:00,
2013-04-24 01:45:00,59.9,42.2,29.94,North,0,0.0,0.0,52,0.00,CLR,,0.00,WeatherDisplay:10.37,2013-04-23 22:45:00,
2013-04-24 01:46:00,59.9,42.2,29.94,NE,45,0.0,0.0,52,0.00,CLR,,0.00,WeatherDisplay:10.37,2013-04-23 22:46:00,
2013-04-24 01:47:00,59.9,42.2,29.94,ENE,68,0.0,0.0,52,0.00,CLR,,0.00,WeatherDisplay:10.37,2013-04-23 22:47:00,
2013-04-24 01:48:00,59.9,42.2,29.94,ENE,68,0.0,0.0,52,0.00,CLR,,0.00,WeatherDisplay:10.37,2013-04-23 22:48:00,
2013-04-24 01:50:00,59.7,41.6,29.94,ESE,112,0.0,0.0,51,0.00,CLR,,0.00,WeatherDisplay:10.37,2013-04-23 22:50:00,
2013-04-24 01:52:00,59.7,41.6,29.94,ESE,112,0.0,0.0,51,0.00,CLR,,0.00,WeatherDisplay:10.37,2013-04-23 22:52:00,
2013-04-24 01:54:00,59.7,41.6,29.94,SE,135,1.2,1.2,51,0.00,CLR,,0.00,WeatherDisplay:10.37,2013-04-23 22:54:00,
2013-04-24 01:55:00,59.7,41.0,29.94,SE,135,0.0,0.0,50,0.00,CLR,,0.00,WeatherDisplay:10.37,2013-04-23 22:55:00,
2013-04-24 01:56:00,59.5,40.9,29.94,SE,135,0.0,0.0,50,0.00,CLR,,0.00,WeatherDisplay:10.37,2013-04-23 22:56:00,
2013-04-24 01:57:00,59.5,40.9,29.94,SE,135,0.0,0.0,50,0.00,CLR,,0.00,WeatherDisplay:10.37,2013-04-23 22:57:00,
2013-04-24 01:58:00,59.5,40.9,29.94,SE,135,0.0,0.0,50,0.00,CLR,,0.00,WeatherDisplay:10.37,2013-04-23 22:58:00,
2013-04-24 01:59:00,59.4,40.7,29.94,SE,135,0.0,0.0,50,0.00,CLR,,0.00,WeatherDisplay:10.37,2013-04-23 22:59:00,
2013-04-24 02:00:00,59.4,40.7,29.94,SE,135,0.0,0.0,50,0.00,CLR,,0.00,WeatherDisplay:10.37,2013-04-23 23:00:00,
2013-04-24 02:01:00,59.4,40.7,29.94,NNW,338,0.0,0.0,50,0.00,CLR,,0.00,WeatherDisplay:10.37,2013-04-23 23:01:00,
2013-04-24 02:02:00,59.4,40.7,29.94,NNW,338,0.0,0.0,50,0.00,CLR,,0.00,WeatherDisplay:10.37,2013-04-23 23:02:00,
2013-04-24 02:03:00,59.4,40.7,29.94,East,90,0.0,0.0,50,0.00,CLR,,0.00,WeatherDisplay:10.37,2013-04-23 23:03:00,
2013-04-24 02:04:00,59.4,40.7,29.94,East,90,0.0,0.0,50,0.00,CLR,,0.00,WeatherDisplay:10.37,2013-04-23 23:04:00,
2013-04-24 02:05:00,59.4,40.7,29.94,East,90,0.0,0.0,50,0.00,CLR,,0.00,WeatherDisplay:10.37,2013-04-23 23:05:00,
2013-04-24 02:06:00,59.4,40.2,29.94,East,90,0.0,0.0,49,0.00,CLR,,0.00,WeatherDisplay:10.37,2013-04-23 23:06:00,
2013-04-24 02:07:00,59.2,40.0,29.94,East,90,0.0,0.0,49,0.00,CLR,,0.00,WeatherDisplay:10.37,2013-04-23 23:07:00,
2013-04-24 02:09:00,59.2,40.0,29.97,East,90,0.0,0.0,49,0.00,CLR,,0.00,WeatherDisplay:10.37,2013-04-23 23:09:00,
2013-04-24 02:10:00,59.2,40.0,29.97,NE,45,1.4,0.0,49,0.00,CLR,,0.00,WeatherDisplay:10.37,2013-04-23 23:10:00,
2013-04-24 02:12:00,59.2,40.0,29.97,ENE,68,1.2,0.0,49,0.00,CLR,,0.00,WeatherDisplay:10.37,2013-04-23 23:12:00,
2013-04-24 02:14:00,59.2,40.0,29.97,ENE,68,0.0,0.0,49,0.00,CLR,,0.00,WeatherDisplay:10.37,2013-04-23 23:14:00,
2013-04-24 02:15:00,59.2,40.0,29.97,ENE,68,0.0,0.0,49,0.00,CLR,,0.00,WeatherDisplay:10.37,2013-04-23 23:15:00,
2013-04-24 02:18:00,59.2,39.5,29.97,ENE,68,0.0,0.0,48,0.00,CLR,,0.00,WeatherDisplay:10.37,2013-04-23 23:18:00,
2013-04-24 02:19:00,59.2,39.5,29.97,ENE,68,0.0,0.0,48,0.00,CLR,,0.00,WeatherDisplay:10.37,2013-04-23 23:19:00,
2013-04-24 02:20:00,59.0,39.3,29.97,ENE,68,0.0,0.0,48,0.00,CLR,,0.00,WeatherDisplay:10.37,2013-04-23 23:20:00,
2013-04-24 02:23:00,58.8,39.7,29.97,ENE,68,0.0,0.0,49,0.00,CLR,,0.00,WeatherDisplay:10.37,2013-04-23 23:23:00,
2013-04-24 02:24:00,58.8,39.2,29.97,ENE,68,0.0,0.0,48,0.00,CLR,,0.00,WeatherDisplay:10.37,2013-04-23 23:24:00,
2013-04-24 02:25:00,58.8,39.2,29.97,ENE,68,0.0,0.0,48,0.00,CLR,,0.00,WeatherDisplay:10.37,2013-04-23 23:25:00,
2013-04-24 02:26:00,58.8,39.2,29.97,ENE,68,0.0,0.0,48,0.00,CLR,,0.00,WeatherDisplay:10.37,2013-04-23 23:26:00,
2013-04-24 02:28:00,58.8,39.2,29.97,ENE,68,0.0,0.0,48,0.00,CLR,,0.00,WeatherDisplay:10.37,2013-04-23 23:28:00,
2013-04-24 02:29:00,58.8,39.2,29.97,ENE,68,0.0,0.0,48,0.00,CLR,,0.00,WeatherDisplay:10.37,2013-04-23 23:29:00,
2013-04-24 02:30:00,58.8,39.2,29.97,ENE,68,2.3,2.3,48,0.00,CLR,,0.00,WeatherDisplay:10.37,2013-04-23 23:30:00,
2013-04-24 02:31:00,58.8,39.2,29.97,ENE,68,2.3,2.3,48,0.00,CLR,,0.00,WeatherDisplay:10.37,2013-04-23 23:31:00,
2013-04-24 02:33:00,58.8,39.2,29.97,ENE,68,0.0,0.0,48,0.00,CLR,,0.00,WeatherDisplay:10.37,2013-04-23 23:33:00,
2013-04-24 02:34:00,58.8,39.2,29.97,ENE,68,0.0,0.0,48,0.00,CLR,,0.00,WeatherDisplay:10.37,2013-04-23 23:34:00,
2013-04-24 02:36:00,58.8,39.2,29.97,ENE,68,0.0,0.0,48,0.00,CLR,,0.00,WeatherDisplay:10.37,2013-04-23 23:36:00,
2013-04-24 02:38:00,58.6,39.0,29.97,ENE,68,0.0,0.0,48,0.00,CLR,,0.00,WeatherDisplay:10.37,2013-04-23 23:38:00,
2013-04-24 02:39:00,58.6,39.0,29.97,ENE,68,0.0,0.0,48,0.00,CLR,,0.00,WeatherDisplay:10.37,2013-04-23 23:39:00,
2013-04-24 02:41:00,58.5,38.8,29.97,ENE,68,0.0,0.0,48,0.00,CLR,,0.00,WeatherDisplay:10.37,2013-04-23 23:41:00,
2013-04-24 02:44:00,58.5,38.8,29.97,ENE,68,0.0,0.0,48,0.00,CLR,,0.00,WeatherDisplay:10.37,2013-04-23 23:44:00,
2013-04-24 02:46:00,58.5,38.8,29.97,ENE,68,1.2,0.0,48,0.00,CLR,,0.00,WeatherDisplay:10.37,2013-04-23 23:46:00,
2013-04-24 02:49:00,58.5,38.8,29.97,ENE,68,0.0,0.0,48,0.00,CLR,,0.00,WeatherDisplay:10.37,2013-04-23 23:49:00,
2013-04-24 02:50:00,58.5,38.8,29.97,ENE,68,0.0,0.0,48,0.00,CLR,,0.00,WeatherDisplay:10.37,2013-04-23 23:50:00,
2013-04-24 02:51:00,58.6,39.0,29.97,ENE,68,0.0,0.0,48,0.00,CLR,,0.00,WeatherDisplay:10.37,2013-04-23 23:51:00,
2013-04-24 02:54:00,58.6,39.0,29.97,ENE,68,0.0,0.0,48,0.00,CLR,,0.00,WeatherDisplay:10.37,2013-04-23 23:54:00,
2013-04-24 02:55:00,58.6,39.0,29.97,ENE,68,0.0,0.0,48,0.00,CLR,,0.00,WeatherDisplay:10.37,2013-04-23 23:55:00,
2013-04-24 02:56:00,58.6,39.0,29.97,ENE,68,0.0,0.0,48,0.00,CLR,,0.00,WeatherDisplay:10.37,2013-04-23 23:56:00,
2013-04-24 02:57:00,58.6,39.0,29.97,ENE,68,0.0,0.0,48,0.00,CLR,,0.00,WeatherDisplay:10.37,2013-04-23 23:57:00,
2013-04-24 02:59:00,58.6,39.0,29.97,NNW,338,2.2,0.0,48,0.00,CLR,,0.00,WeatherDisplay:10.37,2013-04-23 23:59:00,
2013-04-24 03:00:00,58.8,39.2,29.97,NNW,338,2.6,2.6,48,0.00,CLR,,0.00,WeatherDisplay:10.37,2013-04-24 00:00:00,
2013-04-24 03:01:00,58.8,39.2,29.97,NNW,338,2.3,2.3,48,0.00,CLR,,0.00,WeatherDisplay:10.37,2013-04-24 00:01:00,
2013-04-24 03:02:00,59.0,38.8,29.97,NNE,22,3.5,3.5,47,0.00,CLR,,0.00,WeatherDisplay:10.37,2013-04-24 00:02:00,
2013-04-24 03:04:00,59.2,38.9,29.97,NE,45,1.2,0.0,47,0.00,CLR,,0.00,WeatherDisplay:10.37,2013-04-24 00:04:00,
2013-04-24 03:05:00,59.2,38.9,29.97,NNE,22,0.0,0.0,47,0.00,CLR,,0.00,WeatherDisplay:10.37,2013-04-24 00:05:00,
2013-04-24 03:07:00,59.2,38.9,29.97,NNW,338,3.5,3.5,47,0.00,CLR,,0.00,WeatherDisplay:10.37,2013-04-24 00:07:00,
2013-04-24 03:09:00,59.5,39.3,29.94,NW,315,4.6,4.6,47,0.00,CLR,,0.00,WeatherDisplay:10.37,2013-04-24 00:09:00,
2013-04-24 03:10:00,59.7,38.9,29.94,NNW,338,4.6,0.0,46,0.00,CLR,,0.00,WeatherDisplay:10.37,2013-04-24 00:10:00,
2013-04-24 03:12:00,59.7,38.9,29.94,NNW,338,2.3,2.3,46,0.00,CLR,,0.00,WeatherDisplay:10.37,2013-04-24 00:12:00,
2013-04-24 03:14:00,59.9,39.1,29.94,NNW,338,1.2,0.0,46,0.00,CLR,,0.00,WeatherDisplay:10.37,2013-04-24 00:14:00,
2013-04-24 03:15:00,59.9,39.1,29.94,NNW,338,0.0,0.0,46,0.00,CLR,,0.00,WeatherDisplay:10.37,2013-04-24 00:15:00,
2013-04-24 03:16:00,59.9,39.1,29.94,NNW,338,2.2,0.0,46,0.00,CLR,,0.00,WeatherDisplay:10.37,2013-04-24 00:16:00,
2013-04-24 03:17:00,59.9,39.1,29.94,NNW,338,2.3,2.3,46,0.00,CLR,,0.00,WeatherDisplay:10.37,2013-04-24 00:17:00,
2013-04-24 03:18:00,59.9,39.1,29.94,NNW,338,2.3,2.3,46,0.00,CLR,,0.00,WeatherDisplay:10.37,2013-04-24 00:18:00,
2013-04-24 03:20:00,59.9,39.1,29.94,NNW,338,0.0,2.0,46,0.00,CLR,,0.00,WeatherDisplay:10.37,2013-04-24 00:20:00,
2013-04-24 03:21:00,59.7,38.9,29.94,NNW,338,0.0,0.0,46,0.00,CLR,,0.00,WeatherDisplay:10.37,2013-04-24 00:21:00,
2013-04-24 03:23:00,59.7,38.9,29.97,NNW,338,0.0,0.0,46,0.00,CLR,,0.00,WeatherDisplay:10.37,2013-04-24 00:23:00,
2013-04-24 03:25:00,59.7,38.9,29.97,NE,45,0.0,0.0,46,0.00,CLR,,0.00,WeatherDisplay:10.37,2013-04-24 00:25:00,
2013-04-24 03:26:00,59.5,38.7,29.97,NNE,22,0.0,0.0,46,0.00,CLR,,0.00,WeatherDisplay:10.37,2013-04-24 00:26:00,
2013-04-24 03:28:00,59.5,38.7,29.97,NE,45,0.0,0.0,46,0.00,CLR,,0.00,WeatherDisplay:10.37,2013-04-24 00:28:00,
2013-04-24 03:30:00,59.5,38.7,29.97,NNE,22,1.2,0.0,46,0.00,CLR,,0.00,WeatherDisplay:10.37,2013-04-24 00:30:00,
2013-04-24 03:31:00,59.4,38.6,29.97,NNE,22,0.0,0.0,46,0.00,CLR,,0.00,WeatherDisplay:10.37,2013-04-24 00:31:00,
2013-04-24 03:33:00,59.4,38.6,29.97,NNE,22,0.0,0.0,46,0.00,CLR,,0.00,WeatherDisplay:10.37,2013-04-24 00:33:00,
2013-04-24 03:35:00,59.2,38.4,29.97,NNE,22,0.0,0.0,46,0.00,CLR,,0.00,WeatherDisplay:10.37,2013-04-24 00:35:00,
2013-04-24 03:36:00,59.2,38.4,29.97,NNE,22,0.0,0.0,46,0.00,CLR,,0.00,WeatherDisplay:10.37,2013-04-24 00:36:00,
2013-04-24 03:38:00,59.0,38.2,29.97,NNW,338,0.0,0.0,46,0.00,CLR,,0.00,WeatherDisplay:10.37,2013-04-24 00:38:00,
2013-04-24 03:41:00,58.8,38.1,29.97,NNW,338,0.0,0.0,46,0.00,CLR,,0.00,WeatherDisplay:10.37,2013-04-24 00:41:00,
2013-04-24 03:43:00,58.6,37.9,29.97,ENE,68,0.0,0.0,46,0.00,CLR,,0.00,WeatherDisplay:10.37,2013-04-24 00:43:00,
2013-04-24 03:46:00,58.6,38.5,29.97,East,90,0.0,0.0,47,0.00,CLR,,0.00,WeatherDisplay:10.37,2013-04-24 00:46:00,
2013-04-24 03:47:00,58.5,38.3,29.97,East,90,0.0,0.0,47,0.00,CLR,,0.00,WeatherDisplay:10.37,2013-04-24 00:47:00,
2013-04-24 03:49:00,58.5,38.3,29.97,East,90,0.0,0.0,47,0.00,CLR,,0.00,WeatherDisplay:10.37,2013-04-24 00:49:00,
2013-04-24 03:51:00,58.3,38.1,29.97,East,90,0.0,0.0,47,0.00,CLR,,0.00,WeatherDisplay:10.37,2013-04-24 00:51:00,
2013-04-24 03:52:00,58.3,38.1,29.97,East,90,0.0,0.0,47,0.00,CLR,,0.00,WeatherDisplay:10.37,2013-04-24 00:52:00,
2013-04-24 03:54:00,58.3,38.1,29.94,ESE,112,0.0,0.0,47,0.00,CLR,,0.00,WeatherDisplay:10.37,2013-04-24 00:54:00,
2013-04-24 03:56:00,58.3,38.1,29.94,SSE,158,0.0,0.0,47,0.00,CLR,,0.00,WeatherDisplay:10.37,2013-04-24 00:56:00,
2013-04-24 03:57:00,58.3,38.1,29.94,SSE,158,0.0,0.0,47,0.00,CLR,,0.00,WeatherDisplay:10.37,2013-04-24 00:57:00,
2013-04-24 03:59:00,58.1,38.0,29.94,SSE,158,0.0,0.0,47,0.00,CLR,,0.00,WeatherDisplay:10.37,2013-04-24 00:59:00,
2013-04-24 04:01:00,57.9,37.8,29.94,SSE,158,0.0,0.0,47,0.00,CLR,,0.00,WeatherDisplay:10.37,2013-04-24 01:01:00,
2013-04-24 04:02:00,57.9,37.8,29.94,SSE,158,0.0,0.0,47,0.00,CLR,,0.00,WeatherDisplay:10.37,2013-04-24 01:02:00,
2013-04-24 04:05:00,57.9,37.8,29.94,SSE,158,0.0,0.0,47,0.00,CLR,,0.00,WeatherDisplay:10.37,2013-04-24 01:05:00,
2013-04-24 04:06:00,57.9,37.8,29.94,SSE,158,0.0,0.0,47,0.00,CLR,,0.00,WeatherDisplay:10.37,2013-04-24 01:06:00,
2013-04-24 04:07:00,57.9,37.8,29.94,SSE,158,0.0,0.0,47,0.00,CLR,,0.00,WeatherDisplay:10.37,2013-04-24 01:07:00,
2013-04-24 04:10:00,57.7,38.2,29.97,SSE,158,0.0,0.0,48,0.00,CLR,,0.00,WeatherDisplay:10.37,2013-04-24 01:10:00,
2013-04-24 04:11:00,57.7,38.2,29.97,SSE,158,0.0,0.0,48,0.00,CLR,,0.00,WeatherDisplay:10.37,2013-04-24 01:11:00,
2013-04-24 04:12:00,57.7,37.6,29.97,SSE,158,0.0,0.0,47,0.00,CLR,,0.00,WeatherDisplay:10.37,2013-04-24 01:12:00,
2013-04-24 04:13:00,57.7,38.2,29.97,SSE,158,0.0,0.0,48,0.00,CLR,,0.00,WeatherDisplay:10.37,2013-04-24 01:13:00,
2013-04-24 04:15:00,57.6,38.0,29.97,SSE,158,0.0,0.0,48,0.00,CLR,,0.00,WeatherDisplay:10.37,2013-04-24 01:15:00,
2013-04-24 04:16:00,57.6,38.0,29.97,SSE,158,0.0,0.0,48,0.00,CLR,,0.00,WeatherDisplay:10.37,2013-04-24 01:16:00,
2013-04-24 04:17:00,57.6,38.0,29.97,SSE,158,0.0,0.0,48,0.00,CLR,,0.00,WeatherDisplay:10.37,2013-04-24 01:17:00,
2013-04-24 04:18:00,57.6,38.0,29.97,SSE,158,0.0,0.0,48,0.00,CLR,,0.00,WeatherDisplay:10.37,2013-04-24 01:18:00,
2013-04-24 04:20:00,57.6,38.0,29.97,SSE,158,0.0,0.0,48,0.00,CLR,,0.00,WeatherDisplay:10.37,2013-04-24 01:20:00,
2013-04-24 04:21:00,57.6,38.0,29.97,SSE,158,0.0,0.0,48,0.00,CLR,,0.00,WeatherDisplay:10.37,2013-04-24 01:21:00,
2013-04-24 04:22:00,57.6,38.0,29.97,SSE,158,0.0,0.0,48,0.00,CLR,,0.00,WeatherDisplay:10.37,2013-04-24 01:22:00,
2013-04-24 04:23:00,57.6,38.0,29.97,SSE,158,0.0,0.0,48,0.00,CLR,,0.00,WeatherDisplay:10.37,2013-04-24 01:23:00,
2013-04-24 04:25:00,57.4,37.8,29.97,SSE,158,0.0,0.0,48,0.00,CLR,,0.00,WeatherDisplay:10.37,2013-04-24 01:25:00,
2013-04-24 04:27:00,57.2,37.7,29.97,SSE,158,0.0,0.0,48,0.00,CLR,,0.00,WeatherDisplay:10.37,2013-04-24 01:27:00,
2013-04-24 04:28:00,57.2,37.7,29.97,SSE,158,0.0,0.0,48,0.00,CLR,,0.00,WeatherDisplay:10.37,2013-04-24 01:28:00,
2013-04-24 04:30:00,57.2,38.2,29.97,SSE,158,0.0,0.0,49,0.00,CLR,,0.00,WeatherDisplay:10.37,2013-04-24 01:30:00,
2013-04-24 04:32:00,57.2,38.2,29.97,SSE,158,0.0,0.0,49,0.00,CLR,,0.00,WeatherDisplay:10.37,2013-04-24 01:32:00,
2013-04-24 04:33:00,57.2,38.2,29.97,SSE,158,0.0,0.0,49,0.00,CLR,,0.00,WeatherDisplay:10.37,2013-04-24 01:33:00,
2013-04-24 04:35:00,57.2,38.2,29.97,SSE,158,0.0,0.0,49,0.00,CLR,,0.00,WeatherDisplay:10.37,2013-04-24 01:35:00,
2013-04-24 04:37:00,57.2,38.7,29.97,SSE,158,0.0,0.0,50,0.00,CLR,,0.00,WeatherDisplay:10.37,2013-04-24 01:37:00,
2013-04-24 04:38:00,57.2,38.7,29.97,SSE,158,0.0,0.0,50,0.00,CLR,,0.00,WeatherDisplay:10.37,2013-04-24 01:38:00,
2013-04-24 04:39:00,57.2,38.7,29.97,SSE,158,0.0,0.0,50,0.00,CLR,,0.00,WeatherDisplay:10.37,2013-04-24 01:39:00,
2013-04-24 04:40:00,57.2,38.7,29.97,SSE,158,0.0,0.0,50,0.00,CLR,,0.00,WeatherDisplay:10.37,2013-04-24 01:40:00,
2013-04-24 04:43:00,57.2,38.2,29.97,SSE,158,0.0,0.0,49,0.00,CLR,,0.00,WeatherDisplay:10.37,2013-04-24 01:43:00,
2013-04-24 04:44:00,57.2,38.7,29.97,SSE,158,1.2,0.0,50,0.00,CLR,,0.00,WeatherDisplay:10.37,2013-04-24 01:44:00,
2013-04-24 04:46:00,57.2,38.7,29.97,ENE,68,1.6,1.6,50,0.00,CLR,,0.00,WeatherDisplay:10.37,2013-04-24 01:46:00,
2013-04-24 04:48:00,57.2,38.7,29.97,ENE,68,0.0,0.0,50,0.00,CLR,,0.00,WeatherDisplay:10.37,2013-04-24 01:48:00,
2013-04-24 04:49:00,57.2,38.7,29.97,ENE,68,0.0,0.0,50,0.00,CLR,,0.00,WeatherDisplay:10.37,2013-04-24 01:49:00,
2013-04-24 04:51:00,57.2,38.7,29.97,ENE,68,0.0,0.0,50,0.00,CLR,,0.00,WeatherDisplay:10.37,2013-04-24 01:51:00,
2013-04-24 04:53:00,57.2,38.7,29.97,ENE,68,0.0,0.0,50,0.00,CLR,,0.00,WeatherDisplay:10.37,2013-04-24 01:53:00,
2013-04-24 04:54:00,57.2,38.7,29.97,ENE,68,0.0,0.0,50,0.00,CLR,,0.00,WeatherDisplay:10.37,2013-04-24 01:54:00,
2013-04-24 04:55:00,57.2,38.7,29.97,ENE,68,0.0,0.0,50,0.00,CLR,,0.00,WeatherDisplay:10.37,2013-04-24 01:55:00,
2013-04-24 04:56:00,57.2,38.7,29.97,ENE,68,0.0,0.0,50,0.00,CLR,,0.00,WeatherDisplay:10.37,2013-04-24 01:56:00,
2013-04-24 04:58:00,57.2,38.7,29.97,ENE,68,0.0,0.0,50,0.00,CLR,,0.00,WeatherDisplay:10.37,2013-04-24 01:58:00,
2013-04-24 04:59:00,57.2,38.7,29.97,ENE,68,0.0,0.0,50,0.00,CLR,,0.00,WeatherDisplay:10.37,2013-04-24 01:59:00,
2013-04-24 05:00:00,57.2,38.7,29.97,NE,45,0.0,0.0,50,0.00,CLR,,0.00,WeatherDisplay:10.37,2013-04-24 02:00:00,
2013-04-24 05:01:00,57.2,38.7,29.97,NE,45,0.0,0.0,50,0.00,CLR,,0.00,WeatherDisplay:10.37,2013-04-24 02:01:00,
2013-04-24 05:04:00,57.2,38.7,29.97,NE,45,0.0,0.0,50,0.00,CLR,,0.00,WeatherDisplay:10.37,2013-04-24 02:04:00,
2013-04-24 05:05:00,57.2,38.7,29.97,NE,45,0.0,0.0,50,0.00,CLR,,0.00,WeatherDisplay:10.37,2013-04-24 02:05:00,
2013-04-24 05:06:00,57.2,38.7,29.97,NE,45,0.0,0.0,50,0.00,CLR,,0.00,WeatherDisplay:10.37,2013-04-24 02:06:00,
2013-04-24 05:09:00,57.2,39.2,29.97,ENE,68,1.2,0.0,51,0.00,CLR,,0.00,WeatherDisplay:10.37,2013-04-24 02:09:00,
2013-04-24 05:12:00,57.2,39.2,29.97,ENE,68,0.0,0.0,51,0.00,CLR,,0.00,WeatherDisplay:10.37,2013-04-24 02:12:00,
2013-04-24 05:14:00,57.2,39.2,29.97,ENE,68,0.0,0.0,51,0.00,CLR,,0.00,WeatherDisplay:10.37,2013-04-24 02:14:00,
2013-04-24 05:18:00,57.0,39.1,29.97,ENE,68,0.0,0.0,51,0.00,CLR,,0.00,WeatherDisplay:10.37,2013-04-24 02:18:00,
2013-04-24 05:19:00,57.0,39.1,29.97,ENE,68,0.0,0.0,51,0.00,CLR,,0.00,WeatherDisplay:10.37,2013-04-24 02:19:00,
2013-04-24 05:20:00,57.0,39.1,29.97,ENE,68,0.0,0.0,51,0.00,CLR,,0.00,WeatherDisplay:10.37,2013-04-24 02:20:00,
2013-04-24 05:25:00,57.0,39.1,29.97,ENE,68,0.0,0.0,51,0.00,CLR,,0.00,WeatherDisplay:10.37,2013-04-24 02:25:00,
2013-04-24 05:26:00,57.0,39.1,29.97,ENE,68,0.0,0.0,51,0.00,CLR,,0.00,WeatherDisplay:10.37,2013-04-24 02:26:00,
2013-04-24 05:30:00,57.0,39.1,29.97,ENE,68,0.0,0.0,51,0.00,CLR,,0.00,WeatherDisplay:10.37,2013-04-24 02:30:00,
2013-04-24 05:31:00,57.2,39.2,29.97,ENE,68,1.6,0.0,51,0.00,CLR,,0.00,WeatherDisplay:10.37,2013-04-24 02:31:00,
2013-04-24 05:32:00,57.2,39.2,29.97,ENE,68,1.2,0.0,51,0.00,CLR,,0.00,WeatherDisplay:10.37,2013-04-24 02:32:00,
2013-04-24 05:36:00,57.0,39.1,29.97,ENE,68,0.0,0.0,51,0.00,CLR,,0.00,WeatherDisplay:10.37,2013-04-24 02:36:00,
2013-04-24 05:37:00,57.0,39.1,29.97,ENE,68,0.0,0.0,51,0.00,CLR,,0.00,WeatherDisplay:10.37,2013-04-24 02:37:00,
2013-04-24 05:39:00,57.0,39.1,29.94,ENE,68,2.3,2.3,51,0.00,CLR,,0.00,WeatherDisplay:10.37,2013-04-24 02:39:00,
2013-04-24 05:41:00,57.0,39.1,29.94,ENE,68,1.2,0.0,51,0.00,CLR,,0.00,WeatherDisplay:10.37,2013-04-24 02:41:00,
2013-04-24 05:42:00,57.0,39.1,29.94,NNE,22,0.0,0.0,51,0.00,CLR,,0.00,WeatherDisplay:10.37,2013-04-24 02:42:00,
2013-04-24 05:44:00,57.2,39.2,29.94,NNE,22,2.3,2.3,51,0.00,CLR,,0.00,WeatherDisplay:10.37,2013-04-24 02:44:00,
2013-04-24 05:47:00,57.2,39.2,29.94,ENE,68,1.2,0.0,51,0.00,CLR,,0.00,WeatherDisplay:10.37,2013-04-24 02:47:00,
2013-04-24 05:49:00,57.2,39.2,29.94,ENE,68,0.0,0.0,51,0.00,CLR,,0.00,WeatherDisplay:10.37,2013-04-24 02:49:00,
2013-04-24 05:51:00,57.0,39.1,29.94,ENE,68,0.0,0.0,51,0.00,CLR,,0.00,WeatherDisplay:10.37,2013-04-24 02:51:00,
2013-04-24 05:52:00,57.0,39.1,29.94,ENE,68,0.0,0.0,51,0.00,CLR,,0.00,WeatherDisplay:10.37,2013-04-24 02:52:00,
2013-04-24 05:54:00,57.0,39.1,29.97,ENE,68,0.0,0.0,51,0.00,CLR,,0.00,WeatherDisplay:10.37,2013-04-24 02:54:00,
2013-04-24 05:56:00,56.8,38.9,29.97,ENE,68,0.0,0.0,51,0.00,CLR,,0.00,WeatherDisplay:10.37,2013-04-24 02:56:00,
2013-04-24 05:59:00,56.7,38.7,29.97,ENE,68,0.0,0.0,51,0.00,CLR,,0.00,WeatherDisplay:10.37,2013-04-24 02:59:00,
2013-04-24 06:00:00,56.7,38.7,29.97,ENE,68,0.0,0.0,51,0.00,CLR,,0.00,WeatherDisplay:10.37,2013-04-24 03:00:00,
2013-04-24 06:02:00,56.7,38.7,29.97,ENE,68,0.0,0.0,51,0.00,CLR,,0.00,WeatherDisplay:10.37,2013-04-24 03:02:00,
2013-04-24 06:04:00,56.5,38.6,29.97,ENE,68,0.0,0.0,51,0.00,CLR,,0.00,WeatherDisplay:10.37,2013-04-24 03:04:00,
2013-04-24 06:05:00,56.5,38.6,29.97,ENE,68,0.0,0.0,51,0.00,CLR,,0.00,WeatherDisplay:10.37,2013-04-24 03:05:00,
2013-04-24 06:07:00,56.3,38.4,29.97,ENE,68,0.0,0.0,51,0.00,CLR,,0.00,WeatherDisplay:10.37,2013-04-24 03:07:00,
2013-04-24 06:10:00,56.7,39.2,29.97,ENE,68,0.0,0.0,52,0.00,CLR,,0.00,WeatherDisplay:10.37,2013-04-24 03:10:00,
2013-04-24 06:14:00,56.7,39.2,29.97,ENE,68,0.0,0.0,52,0.00,CLR,,0.00,WeatherDisplay:10.37,2013-04-24 03:14:00,
2013-04-24 06:15:00,56.7,39.2,29.97,ENE,68,0.0,0.0,52,0.00,CLR,,0.00,WeatherDisplay:10.37,2013-04-24 03:15:00,
2013-04-24 06:17:00,56.8,39.9,29.97,ENE,68,1.2,1.2,53,0.00,CLR,,0.00,WeatherDisplay:10.37,2013-04-24 03:17:00,
2013-04-24 06:18:00,56.8,39.9,29.97,ENE,68,1.2,0.0,53,0.00,CLR,,0.00,WeatherDisplay:10.37,2013-04-24 03:18:00,
2013-04-24 06:19:00,56.8,39.9,29.97,ENE,68,0.0,0.0,53,0.00,CLR,,0.00,WeatherDisplay:10.37,2013-04-24 03:19:00,
2013-04-24 06:23:00,56.8,39.4,29.97,ENE,68,0.0,0.0,52,0.00,CLR,,0.00,WeatherDisplay:10.37,2013-04-24 03:23:00,
2013-04-24 06:24:00,56.8,39.4,29.97,ENE,68,0.0,0.0,52,0.00,CLR,,0.00,WeatherDisplay:10.37,2013-04-24 03:24:00,
2013-04-24 06:29:00,56.7,39.2,29.97,ENE,68,0.0,0.0,52,0.00,CLR,,0.00,WeatherDisplay:10.37,2013-04-24 03:29:00,
2013-04-24 06:31:00,56.7,39.2,29.97,ENE,68,0.0,0.0,52,0.00,CLR,,0.00,WeatherDisplay:10.37,2013-04-24 03:31:00,
2013-04-24 06:34:00,56.5,39.1,29.97,ENE,68,0.0,0.0,52,0.00,CLR,,0.00,WeatherDisplay:10.37,2013-04-24 03:34:00,
2013-04-24 06:36:00,56.5,39.5,29.97,ENE,68,0.0,0.0,53,0.00,CLR,,0.00,WeatherDisplay:10.37,2013-04-24 03:36:00,
2013-04-24 06:37:00,56.5,39.5,29.97,ENE,68,0.0,0.0,53,0.00,CLR,,0.00,WeatherDisplay:10.37,2013-04-24 03:37:00,
2013-04-24 06:41:00,56.5,39.5,30.00,ENE,68,0.9,0.0,53,0.00,CLR,,0.00,WeatherDisplay:10.37,2013-04-24 03:41:00,
2013-04-24 06:42:00,56.5,39.5,30.00,ENE,68,1.2,0.0,53,0.00,CLR,,0.00,WeatherDisplay:10.37,2013-04-24 03:42:00,
2013-04-24 06:47:00,56.8,40.4,30.00,ENE,68,0.0,0.0,54,0.00,CLR,,0.00,WeatherDisplay:10.37,2013-04-24 03:47:00,
2013-04-24 06:52:00,56.8,40.4,30.00,ESE,112,0.0,0.0,54,0.00,CLR,,0.00,WeatherDisplay:10.37,2013-04-24 03:52:00,
2013-04-24 06:53:00,56.8,40.4,30.00,ESE,112,0.0,0.0,54,0.00,CLR,,0.00,WeatherDisplay:10.37,2013-04-24 03:53:00,
2013-04-24 06:54:00,56.8,40.4,30.00,ESE,112,0.0,0.0,54,0.00,CLR,,0.00,WeatherDisplay:10.37,2013-04-24 03:54:00,
2013-04-24 06:58:00,56.8,39.9,30.00,ESE,112,0.0,0.0,53,0.00,CLR,,0.00,WeatherDisplay:10.37,2013-04-24 03:58:00,
2013-04-24 06:59:00,56.8,39.9,30.00,ENE,68,0.0,0.0,53,0.00,CLR,,0.00,WeatherDisplay:10.37,2013-04-24 03:59:00,
2013-04-24 07:00:00,56.8,39.9,30.00,ENE,68,0.0,0.0,53,0.00,CLR,,0.00,WeatherDisplay:10.37,2013-04-24 04:00:00,
2013-04-24 07:01:00,56.8,40.4,30.00,ENE,68,0.0,0.0,54,0.00,CLR,,0.00,WeatherDisplay:10.37,2013-04-24 04:01:00,
2013-04-24 07:06:00,57.0,40.5,30.00,ENE,68,0.0,0.0,54,0.00,CLR,,0.00,WeatherDisplay:10.37,2013-04-24 04:06:00,
2013-04-24 07:07:00,57.0,40.5,30.00,ENE,68,0.0,0.0,54,0.00,CLR,,0.00,WeatherDisplay:10.37,2013-04-24 04:07:00,
2013-04-24 07:11:00,57.0,40.5,30.00,ENE,68,0.0,0.0,54,0.00,CLR,,0.00,WeatherDisplay:10.37,2013-04-24 04:11:00,
2013-04-24 07:12:00,57.2,40.2,30.00,ENE,68,0.0,0.0,53,0.00,CLR,,0.00,WeatherDisplay:10.37,2013-04-24 04:12:00,
2013-04-24 07:16:00,57.4,40.9,30.00,ENE,68,0.0,0.0,54,0.00,CLR,,0.00,WeatherDisplay:10.37,2013-04-24 04:16:00,
2013-04-24 07:17:00,57.4,40.9,30.00,ENE,68,0.0,0.0,54,0.00,CLR,,0.00,WeatherDisplay:10.37,2013-04-24 04:17:00,
2013-04-24 07:18:00,57.6,40.5,30.00,ENE,68,0.0,0.0,53,0.00,CLR,,0.00,WeatherDisplay:10.37,2013-04-24 04:18:00,
2013-04-24 07:21:00,57.9,41.4,30.00,ENE,68,2.3,2.3,54,0.00,CLR,,0.00,WeatherDisplay:10.37,2013-04-24 04:21:00,
2013-04-24 07:22:00,57.9,41.4,30.00,ENE,68,2.3,2.3,54,0.00,CLR,,0.00,WeatherDisplay:10.37,2013-04-24 04:22:00,
2013-04-24 07:23:00,58.1,41.5,30.03,ENE,68,0.0,0.0,54,0.00,CLR,,0.00,WeatherDisplay:10.37,2013-04-24 04:23:00,
2013-04-24 07:27:00,59.0,42.4,30.03,ENE,68,0.0,0.0,54,0.00,CLR,,0.00,WeatherDisplay:10.37,2013-04-24 04:27:00,
2013-04-24 07:28:00,59.2,42.5,30.03,ENE,68,0.0,0.0,54,0.00,CLR,,0.00,WeatherDisplay:10.37,2013-04-24 04:28:00,
2013-04-24 07:32:00,59.5,42.9,30.03,ENE,68,0.0,0.0,54,0.00,CLR,,0.00,WeatherDisplay:10.37,2013-04-24 04:32:00,
2013-04-24 07:33:00,59.9,43.2,30.03,ENE,68,0.0,0.0,54,0.00,CLR,,0.00,WeatherDisplay:10.37,2013-04-24 04:33:00,
2013-04-24 07:37:00,60.4,43.7,30.03,ENE,68,0.0,0.0,54,0.00,CLR,,0.00,WeatherDisplay:10.37,2013-04-24 04:37:00,
2013-04-24 07:38:00,60.6,43.9,30.03,ENE,68,0.0,0.0,54,0.00,CLR,,0.00,WeatherDisplay:10.37,2013-04-24 04:38:00,
2013-04-24 07:42:00,61.3,44.5,30.03,ENE,68,0.0,0.0,54,0.00,CLR,,0.00,WeatherDisplay:10.37,2013-04-24 04:42:00,
2013-04-24 07:43:00,61.5,44.7,30.03,ENE,68,0.0,0.0,54,0.00,CLR,,0.00,WeatherDisplay:10.37,2013-04-24 04:43:00,
2013-04-24 07:47:00,62.2,44.9,30.03,ENE,68,0.0,0.0,53,0.00,CLR,,0.00,WeatherDisplay:10.37,2013-04-24 04:47:00,
2013-04-24 07:48:00,62.2,44.9,30.03,ENE,68,0.0,0.0,53,0.00,CLR,,0.00,WeatherDisplay:10.37,2013-04-24 04:48:00,
2013-04-24 07:52:00,63.1,44.7,30.03,ENE,68,0.0,0.0,51,0.00,CLR,,0.00,WeatherDisplay:10.37,2013-04-24 04:52:00,
2013-04-24 07:53:00,63.1,44.7,30.03,ENE,68,0.0,0.0,51,0.00,CLR,,0.00,WeatherDisplay:10.37,2013-04-24 04:53:00,
2013-04-24 07:54:00,63.3,44.9,30.03,ENE,68,0.0,0.0,51,0.00,CLR,,0.00,WeatherDisplay:10.37,2013-04-24 04:54:00,
2013-04-24 07:58:00,64.2,45.2,30.03,ENE,68,0.0,0.0,50,0.00,CLR,,0.00,WeatherDisplay:10.37,2013-04-24 04:58:00,
2013-04-24 07:59:00,64.2,45.2,30.03,ENE,68,0.0,0.0,50,0.00,CLR,,0.00,WeatherDisplay:10.37,2013-04-24 04:59:00,
2013-04-24 08:03:00,64.8,44.6,30.03,ENE,68,0.0,0.0,48,0.00,CLR,,0.00,WeatherDisplay:10.37,2013-04-24 05:03:00,
2013-04-24 08:04:00,65.1,44.4,30.03,ENE,68,0.0,0.0,47,0.00,CLR,,0.00,WeatherDisplay:10.37,2013-04-24 05:04:00,
2013-04-24 08:08:00,65.5,44.7,30.03,ENE,68,0.0,0.0,47,0.00,CLR,,0.00,WeatherDisplay:10.37,2013-04-24 05:08:00,
2013-04-24 08:09:00,65.5,44.7,30.03,ENE,68,0.0,0.0,47,0.00,CLR,,0.00,WeatherDisplay:10.37,2013-04-24 05:09:00,
2013-04-24 08:13:00,65.7,44.3,30.03,ENE,68,0.0,0.0,46,0.00,CLR,,0.00,WeatherDisplay:10.37,2013-04-24 05:13:00,
2013-04-24 08:14:00,65.8,44.5,30.03,ENE,68,0.0,0.0,46,0.00,CLR,,0.00,WeatherDisplay:10.37,2013-04-24 05:14:00,
2013-04-24 08:18:00,66.2,44.2,30.03,SSE,158,0.0,0.0,45,0.00,CLR,,0.00,WeatherDisplay:10.37,2013-04-24 05:18:00,
2013-04-24 08:19:00,66.2,44.2,30.03,SSE,158,0.0,0.0,45,0.00,CLR,,0.00,WeatherDisplay:10.37,2013-04-24 05:19:00,
2013-04-24 08:20:00,66.2,44.2,30.03,SSE,158,0.0,0.0,45,0.00,CLR,,0.00,WeatherDisplay:10.37,2013-04-24 05:20:00,
2013-04-24 08:24:00,66.4,43.8,30.00,SSE,158,2.3,0.0,44,0.00,CLR,,0.00,WeatherDisplay:10.37,2013-04-24 05:24:00,
2013-04-24 08:25:00,66.4,43.8,30.00,SSE,158,1.2,1.4,44,0.00,CLR,,0.00,WeatherDisplay:10.37,2013-04-24 05:25:00,
2013-04-24 08:29:00,66.4,43.8,30.00,SSE,158,4.6,4.6,44,0.00,CLR,,0.00,WeatherDisplay:10.37,2013-04-24 05:29:00,
2013-04-24 08:30:00,66.6,44.0,30.00,SSE,158,4.6,0.0,44,0.00,CLR,,0.00,WeatherDisplay:10.37,2013-04-24 05:30:00,
2013-04-24 08:31:00,66.7,44.1,30.00,SSE,158,0.0,0.0,44,0.00,CLR,,0.00,WeatherDisplay:10.37,2013-04-24 05:31:00,
2013-04-24 08:34:00,67.1,44.4,30.00,SSE,158,0.0,0.0,44,0.00,CLR,,0.00,WeatherDisplay:10.37,2013-04-24 05:34:00,
2013-04-24 08:35:00,67.3,44.6,30.00,SSE,158,0.0,0.0,44,0.00,CLR,,0.00,WeatherDisplay:10.37,2013-04-24 05:35:00,
2013-04-24 08:37:00,67.5,44.8,30.00,SSE,158,0.0,0.0,44,0.00,CLR,,0.00,WeatherDisplay:10.37,2013-04-24 05:37:00,
2013-04-24 08:39:00,67.6,44.9,30.03,SSE,158,0.0,0.0,44,0.00,CLR,,0.00,WeatherDisplay:10.37,2013-04-24 05:39:00,
2013-04-24 08:40:00,67.6,44.9,30.03,South,180,1.2,0.0,44,0.00,CLR,,0.00,WeatherDisplay:10.37,2013-04-24 05:40:00,
2013-04-24 08:42:00,67.5,44.8,30.03,South,180,0.0,0.9,44,0.00,CLR,,0.00,WeatherDisplay:10.37,2013-04-24 05:42:00,
2013-04-24 08:44:00,68.0,44.7,30.03,SSE,158,0.0,0.0,43,0.00,CLR,,0.00,WeatherDisplay:10.37,2013-04-24 05:44:00,
2013-04-24 08:45:00,68.2,44.8,30.03,SSE,158,0.0,0.0,43,0.00,CLR,,0.00,WeatherDisplay:10.37,2013-04-24 05:45:00,
2013-04-24 08:47:00,68.2,44.2,30.03,SSE,158,3.8,0.0,42,0.00,CLR,,0.00,WeatherDisplay:10.37,2013-04-24 05:47:00,
2013-04-24 08:49:00,68.4,44.4,30.03,South,180,2.3,2.3,42,0.00,CLR,,0.00,WeatherDisplay:10.37,2013-04-24 05:49:00,
2013-04-24 08:50:00,68.4,44.4,30.03,SSW,202,2.3,0.0,42,0.00,CLR,,0.00,WeatherDisplay:10.37,2013-04-24 05:50:00,
2013-04-24 08:52:00,68.4,44.4,30.03,SSW,202,2.3,2.3,42,0.00,CLR,,0.00,WeatherDisplay:10.37,2013-04-24 05:52:00,
2013-04-24 08:54:00,68.5,44.5,30.00,SSW,202,3.5,3.5,42,0.00,CLR,,0.00,WeatherDisplay:10.37,2013-04-24 05:54:00,
2013-04-24 08:55:00,68.5,44.5,30.00,SSW,202,1.2,0.0,42,0.00,CLR,,0.00,WeatherDisplay:10.37,2013-04-24 05:55:00,
2013-04-24 08:57:00,68.9,44.2,30.00,SE,135,3.5,3.5,41,0.00,CLR,,0.00,WeatherDisplay:10.37,2013-04-24 05:57:00,
2013-04-24 08:59:00,69.3,45.2,30.00,South,180,3.5,0.0,42,0.00,CLR,,0.00,WeatherDisplay:10.37,2013-04-24 05:59:00,
2013-04-24 09:00:00,69.3,45.2,30.00,SSW,202,0.0,0.0,42,0.00,CLR,,0.00,WeatherDisplay:10.37,2013-04-24 06:00:00,
2013-04-24 09:01:00,69.4,45.3,30.00,SSW,202,0.9,0.0,42,0.00,CLR,,0.00,WeatherDisplay:10.37,2013-04-24 06:01:00,
2013-04-24 09:03:00,69.1,44.4,30.00,South,180,2.3,2.3,41,0.00,CLR,,0.00,WeatherDisplay:10.37,2013-04-24 06:03:00,
2013-04-24 09:05:00,69.1,44.4,30.00,SSW,202,2.3,0.0,41,0.00,CLR,,0.00,WeatherDisplay:10.37,2013-04-24 06:05:00,
2013-04-24 09:06:00,69.4,44.7,30.00,South,180,2.3,2.3,41,0.00,CLR,,0.00,WeatherDisplay:10.37,2013-04-24 06:06:00,
2013-04-24 09:08:00,69.8,44.4,30.00,SSW,202,1.6,0.0,40,0.00,CLR,,0.00,WeatherDisplay:10.37,2013-04-24 06:08:00,
2013-04-24 09:10:00,69.8,44.4,30.00,South,180,1.4,1.4,40,0.00,CLR,,0.00,WeatherDisplay:10.37,2013-04-24 06:10:00,
2013-04-24 09:11:00,69.8,44.4,30.00,SSW,202,4.6,4.6,40,0.00,CLR,,0.00,WeatherDisplay:10.37,2013-04-24 06:11:00,
2013-04-24 09:13:00,70.0,44.5,30.00,South,180,1.2,1.2,40,0.00,CLR,,0.00,WeatherDisplay:10.37,2013-04-24 06:13:00,
2013-04-24 09:15:00,70.0,44.5,30.00,SSW,202,2.3,2.3,40,0.00,CLR,,0.00,WeatherDisplay:10.37,2013-04-24 06:15:00,
2013-04-24 09:16:00,69.8,44.4,30.00,WSW,248,0.0,0.0,40,0.00,CLR,,0.00,WeatherDisplay:10.37,2013-04-24 06:16:00,
2013-04-24 09:18:00,70.2,45.4,30.00,SW,225,0.0,0.0,41,0.00,CLR,,0.00,WeatherDisplay:10.37,2013-04-24 06:18:00,
2013-04-24 09:21:00,71.2,47.0,30.00,West,270,0.0,0.0,42,0.00,CLR,,0.00,WeatherDisplay:10.37,2013-04-24 06:21:00,
2013-04-24 09:23:00,71.4,47.1,30.03,WSW,248,0.0,0.0,42,0.00,CLR,,0.00,WeatherDisplay:10.37,2013-04-24 06:23:00,
2013-04-24 09:26:00,71.2,46.3,30.03,SSW,202,2.3,2.3,41,0.00,CLR,,0.00,WeatherDisplay:10.37,2013-04-24 06:26:00,
2013-04-24 09:29:00,70.9,46.0,30.03,South,180,1.2,0.0,41,0.00,CLR,,0.00,WeatherDisplay:10.37,2013-04-24 06:29:00,
2013-04-24 09:31:00,71.1,46.2,30.03,SW,225,0.0,0.0,41,0.00,CLR,,0.00,WeatherDisplay:10.37,2013-04-24 06:31:00,
2013-04-24 09:32:00,71.4,47.1,30.03,ESE,112,0.0,0.0,42,0.00,CLR,,0.00,WeatherDisplay:10.37,2013-04-24 06:32:00,
2013-04-24 09:34:00,71.8,47.4,30.03,SW,225,0.0,0.0,42,0.00,CLR,,0.00,WeatherDisplay:10.37,2013-04-24 06:34:00,
2013-04-24 09:36:00,71.8,47.4,30.03,SSW,202,2.3,2.3,42,0.00,CLR,,0.00,WeatherDisplay:10.37,2013-04-24 06:36:00,
2013-04-24 09:37:00,71.6,47.3,30.03,South,180,2.3,2.3,42,0.00,CLR,,0.00,WeatherDisplay:10.37,2013-04-24 06:37:00,
2013-04-24 09:39:00,71.6,47.3,30.03,SSW,202,3.5,3.5,42,0.00,CLR,,0.00,WeatherDisplay:10.37,2013-04-24 06:39:00,
2013-04-24 09:41:00,71.2,45.7,30.03,SSW,202,6.9,6.9,40,0.00,CLR,,0.00,WeatherDisplay:10.37,2013-04-24 06:41:00,
2013-04-24 09:42:00,71.2,46.3,30.03,SSW,202,3.6,3.6,41,0.00,CLR,,0.00,WeatherDisplay:10.37,2013-04-24 06:42:00,
2013-04-24 09:44:00,71.1,46.8,30.03,SSW,202,2.3,2.3,42,0.00,CLR,,0.00,WeatherDisplay:10.37,2013-04-24 06:44:00,
2013-04-24 09:47:00,71.6,47.3,30.03,SSE,158,1.2,1.2,42,0.00,CLR,,0.00,WeatherDisplay:10.37,2013-04-24 06:47:00,
2013-04-24 09:49:00,72.3,47.9,30.03,SSE,158,1.2,0.0,42,0.00,CLR,,0.00,WeatherDisplay:10.37,2013-04-24 06:49:00,
2013-04-24 09:52:00,72.5,48.1,30.03,SSE,158,3.6,3.6,42,0.00,CLR,,0.00,WeatherDisplay:10.37,2013-04-24 06:52:00,
2013-04-24 09:54:00,72.0,44.3,30.06,South,180,4.6,4.6,37,0.00,CLR,,0.00,WeatherDisplay:10.37,2013-04-24 06:54:00,
2013-04-24 09:57:00,72.7,44.2,30.06,South,180,1.2,1.2,36,0.00,CLR,,0.00,WeatherDisplay:10.37,2013-04-24 06:57:00,
2013-04-24 09:58:00,72.9,45.1,30.06,SW,225,3.5,3.5,37,0.00,CLR,,0.00,WeatherDisplay:10.37,2013-04-24 06:58:00,
2013-04-24 09:59:00,72.7,45.6,30.06,SSW,202,5.8,5.8,38,0.00,CLR,,0.00,WeatherDisplay:10.37,2013-04-24 06:59:00,
2013-04-24 10:02:00,72.1,46.5,30.06,SW,225,2.3,2.3,40,0.00,CLR,,0.00,WeatherDisplay:10.37,2013-04-24 07:02:00,
2013-04-24 10:03:00,72.1,46.5,30.06,SSE,158,3.5,3.5,40,0.00,CLR,,0.00,WeatherDisplay:10.37,2013-04-24 07:03:00,
2013-04-24 10:04:00,72.3,47.3,30.06,SSW,202,1.2,0.0,41,0.00,CLR,,0.00,WeatherDisplay:10.37,2013-04-24 07:04:00,
2013-04-24 10:07:00,73.0,47.9,30.06,SSE,158,2.4,0.0,41,0.00,CLR,,0.00,WeatherDisplay:10.37,2013-04-24 07:07:00,
2013-04-24 10:08:00,73.0,46.6,30.06,SSW,202,1.2,1.4,39,0.00,CLR,,0.00,WeatherDisplay:10.37,2013-04-24 07:08:00,
2013-04-24 10:09:00,73.0,45.2,30.06,South,180,1.6,2.0,37,0.00,CLR,,0.00,WeatherDisplay:10.37,2013-04-24 07:09:00,
2013-04-24 10:10:00,73.0,45.2,30.06,South,180,3.5,3.5,37,0.00,CLR,,0.00,WeatherDisplay:10.37,2013-04-24 07:10:00,
2013-04-24 10:12:00,73.8,45.1,30.06,ESE,112,3.5,3.5,36,0.00,CLR,,0.00,WeatherDisplay:10.37,2013-04-24 07:12:00,
2013-04-24 10:13:00,74.1,44.7,30.06,ESE,112,3.5,3.5,35,0.00,CLR,,0.00,WeatherDisplay:10.37,2013-04-24 07:13:00,
2013-04-24 10:15:00,74.3,44.9,30.06,SSE,158,0.0,0.0,35,0.00,CLR,,0.00,WeatherDisplay:10.37,2013-04-24 07:15:00,
2013-04-24 10:17:00,74.3,45.6,30.06,WSW,248,2.3,0.0,36,0.00,CLR,,0.00,WeatherDisplay:10.37,2013-04-24 07:17:00,
2013-04-24 10:18:00,74.3,45.6,30.06,SSW,202,2.3,0.0,36,0.00,CLR,,0.00,WeatherDisplay:10.37,2013-04-24 07:18:00,
2013-04-24 10:20:00,74.3,45.6,30.06,SSW,202,2.4,0.0,36,0.00,CLR,,0.00,WeatherDisplay:10.37,2013-04-24 07:20:00,
2013-04-24 10:22:00,74.3,45.6,30.06,WSW,248,3.1,3.1,36,0.00,CLR,,0.00,WeatherDisplay:10.37,2013-04-24 07:22:00,
2013-04-24 10:23:00,73.8,45.1,30.03,WSW,248,3.5,3.5,36,0.00,CLR,,0.00,WeatherDisplay:10.37,2013-04-24 07:23:00,
2013-04-24 10:25:00,73.9,44.5,30.03,WSW,248,4.6,4.6,35,0.00,CLR,,0.00,WeatherDisplay:10.37,2013-04-24 07:25:00,
2013-04-24 10:27:00,73.8,44.4,30.03,WSW,248,3.5,3.5,35,0.00,CLR,,0.00,WeatherDisplay:10.37,2013-04-24 07:27:00,
2013-04-24 10:28:00,74.1,44.7,30.03,West,270,2.3,2.3,35,0.00,CLR,,0.00,WeatherDisplay:10.37,2013-04-24 07:28:00,
2013-04-24 10:29:00,74.1,44.7,30.03,WSW,248,2.3,2.3,35,0.00,CLR,,0.00,WeatherDisplay:10.37,2013-04-24 07:29:00,
2013-04-24 10:30:00,74.5,45.0,30.03,WSW,248,1.2,0.0,35,0.00,CLR,,0.00,WeatherDisplay:10.37,2013-04-24 07:30:00,
2013-04-24 10:33:00,75.2,45.7,30.03,SSW,202,1.4,0.0,35,0.00,CLR,,0.00,WeatherDisplay:10.37,2013-04-24 07:33:00,
2013-04-24 10:34:00,75.0,46.2,30.03,SSW,202,2.9,2.9,36,0.00,CLR,,0.00,WeatherDisplay:10.37,2013-04-24 07:34:00,
2013-04-24 10:35:00,74.7,44.4,30.03,West,270,3.5,3.5,34,0.00,CLR,,0.00,WeatherDisplay:10.37,2013-04-24 07:35:00,
2013-04-24 10:36:00,75.0,45.5,30.03,WSW,248,3.5,3.5,35,0.00,CLR,,0.00,WeatherDisplay:10.37,2013-04-24 07:36:00,
2013-04-24 10:38:00,75.0,44.7,30.03,SSE,158,2.6,2.6,34,0.00,CLR,,0.00,WeatherDisplay:10.37,2013-04-24 07:38:00,
2013-04-24 10:39:00,75.0,44.7,30.03,WSW,248,3.5,3.5,34,0.00,CLR,,0.00,WeatherDisplay:10.37,2013-04-24 07:39:00,
2013-04-24 10:41:00,75.2,44.1,30.03,SSW,202,1.2,0.0,33,0.00,CLR,,0.00,WeatherDisplay:10.37,2013-04-24 07:41:00,
2013-04-24 10:43:00,75.9,44.7,30.03,West,270,3.5,3.5,33,0.00,CLR,,0.00,WeatherDisplay:10.37,2013-04-24 07:43:00,
2013-04-24 10:44:00,75.9,44.7,30.03,SSW,202,2.3,2.3,33,0.00,CLR,,0.00,WeatherDisplay:10.37,2013-04-24 07:44:00,
2013-04-24 10:46:00,75.9,44.7,30.03,SSW,202,5.8,5.8,33,0.00,CLR,,0.00,WeatherDisplay:10.37,2013-04-24 07:46:00,
2013-04-24 10:48:00,75.7,43.8,30.03,WSW,248,3.5,3.5,32,0.00,CLR,,0.00,WeatherDisplay:10.37,2013-04-24 07:48:00,
2013-04-24 10:49:00,75.7,43.8,30.03,West,270,1.2,1.6,32,0.00,CLR,,0.00,WeatherDisplay:10.37,2013-04-24 07:49:00,
2013-04-24 10:51:00,76.1,44.1,30.03,WSW,248,2.3,2.3,32,0.00,CLR,,0.00,WeatherDisplay:10.37,2013-04-24 07:51:00,
2013-04-24 10:53:00,76.1,44.1,30.06,SSW,202,2.3,2.3,32,0.00,CLR,,0.00,WeatherDisplay:10.37,2013-04-24 07:53:00,
2013-04-24 10:54:00,76.5,44.4,30.06,WSW,248,2.3,0.0,32,0.00,CLR,,0.00,WeatherDisplay:10.37,2013-04-24 07:54:00,
2013-04-24 10:56:00,76.6,44.6,30.06,SSW,202,3.5,3.5,32,0.00,CLR,,0.00,WeatherDisplay:10.37,2013-04-24 07:56:00,
2013-04-24 10:57:00,76.5,44.4,30.06,SSW,202,3.6,3.6,32,0.00,CLR,,0.00,WeatherDisplay:10.37,2013-04-24 07:57:00,
2013-04-24 10:58:00,76.1,44.1,30.06,WSW,248,4.6,4.6,32,0.00,CLR,,0.00,WeatherDisplay:10.37,2013-04-24 07:58:00,
2013-04-24 10:59:00,76.5,44.4,30.06,South,180,3.5,3.5,32,0.00,CLR,,0.00,WeatherDisplay:10.37,2013-04-24 07:59:00,
2013-04-24 11:01:00,76.8,44.7,30.06,SSW,202,3.3,3.3,32,0.00,CLR,,0.00,WeatherDisplay:10.37,2013-04-24 08:01:00,
2013-04-24 11:02:00,76.6,44.6,30.06,SSW,202,3.6,3.6,32,0.00,CLR,,0.00,WeatherDisplay:10.37,2013-04-24 08:02:00,
2013-04-24 11:04:00,76.5,44.4,30.06,SE,135,4.6,0.0,32,0.00,CLR,,0.00,WeatherDisplay:10.37,2013-04-24 08:04:00,
2013-04-24 11:05:00,77.0,44.0,30.06,SSW,202,1.2,1.2,31,0.00,CLR,,0.00,WeatherDisplay:10.37,2013-04-24 08:05:00,
2013-04-24 11:06:00,76.8,44.7,30.06,SW,225,2.6,2.6,32,0.00,CLR,,0.00,WeatherDisplay:10.37,2013-04-24 08:06:00,
2013-04-24 11:07:00,76.3,44.2,30.06,South,180,6.9,6.9,32,0.00,CLR,,0.00,WeatherDisplay:10.37,2013-04-24 08:07:00,
2013-04-24 11:09:00,76.6,44.6,30.06,SSW,202,2.6,2.6,32,0.00,CLR,,0.00,WeatherDisplay:10.37,2013-04-24 08:09:00,
2013-04-24 11:10:00,76.5,44.4,30.06,SSW,202,2.3,2.3,32,0.00,CLR,,0.00,WeatherDisplay:10.37,2013-04-24 08:10:00,
2013-04-24 11:11:00,76.5,44.4,30.06,WSW,248,4.7,4.7,32,0.00,CLR,,0.00,WeatherDisplay:10.37,2013-04-24 08:11:00,
2013-04-24 11:13:00,76.1,44.1,30.06,SSW,202,4.6,4.6,32,0.00,CLR,,0.00,WeatherDisplay:10.37,2013-04-24 08:13:00,
2013-04-24 11:14:00,75.9,43.9,30.06,WSW,248,3.8,3.8,32,0.00,CLR,,0.00,WeatherDisplay:10.37,2013-04-24 08:14:00,
2013-04-24 11:15:00,75.9,43.9,30.06,WNW,292,3.5,3.5,32,0.00,CLR,,0.00,WeatherDisplay:10.37,2013-04-24 08:15:00,
2013-04-24 11:16:00,75.9,43.9,30.06,SSE,158,2.3,2.6,32,0.00,CLR,,0.00,WeatherDisplay:10.37,2013-04-24 08:16:00,
2013-04-24 11:18:00,75.6,43.6,30.06,WSW,248,3.5,3.5,32,0.00,CLR,,0.00,WeatherDisplay:10.37,2013-04-24 08:18:00,
2013-04-24 11:19:00,76.1,44.1,30.06,WSW,248,2.3,2.4,32,0.00,CLR,,0.00,WeatherDisplay:10.37,2013-04-24 08:19:00,
2013-04-24 11:20:00,76.1,44.1,30.06,SSW,202,3.6,3.6,32,0.00,CLR,,0.00,WeatherDisplay:10.37,2013-04-24 08:20:00,
2013-04-24 11:21:00,76.5,44.4,30.06,West,270,4.3,4.3,32,0.00,CLR,,0.00,WeatherDisplay:10.37,2013-04-24 08:21:00,
2013-04-24 11:23:00,76.1,44.1,30.06,WNW,292,5.8,5.8,32,0.00,CLR,,0.00,WeatherDisplay:10.37,2013-04-24 08:23:00,
2013-04-24 11:24:00,75.9,43.9,30.06,WSW,248,5.8,5.8,32,0.00,CLR,,0.00,WeatherDisplay:10.37,2013-04-24 08:24:00,
2013-04-24 11:25:00,76.3,44.2,30.06,West,270,2.3,2.3,32,0.00,CLR,,0.00,WeatherDisplay:10.37,2013-04-24 08:25:00,
2013-04-24 11:26:00,76.5,44.4,30.06,WSW,248,2.3,2.3,32,0.00,CLR,,0.00,WeatherDisplay:10.37,2013-04-24 08:26:00,
2013-04-24 11:27:00,76.5,44.4,30.06,West,270,4.6,4.6,32,0.00,CLR,,0.00,WeatherDisplay:10.37,2013-04-24 08:27:00,
2013-04-24 11:28:00,76.1,44.1,30.06,WNW,292,4.6,4.6,32,0.00,CLR,,0.00,WeatherDisplay:10.37,2013-04-24 08:28:00,
2013-04-24 11:29:00,76.5,44.4,30.06,WSW,248,4.6,4.6,32,0.00,CLR,,0.00,WeatherDisplay:10.37,2013-04-24 08:29:00,
2013-04-24 11:30:00,76.5,44.4,30.06,WNW,292,3.5,3.5,32,0.00,CLR,,0.00,WeatherDisplay:10.37,2013-04-24 08:30:00,
2013-04-24 11:31:00,76.6,44.6,30.06,WNW,292,3.5,3.5,32,0.00,CLR,,0.00,WeatherDisplay:10.37,2013-04-24 08:31:00,
2013-04-24 11:32:00,76.6,44.6,30.06,WSW,248,3.8,3.8,32,0.00,CLR,,0.00,WeatherDisplay:10.37,2013-04-24 08:32:00,
2013-04-24 11:33:00,76.1,44.1,30.06,WSW,248,5.8,5.8,32,0.00,CLR,,0.00,WeatherDisplay:10.37,2013-04-24 08:33:00,
2013-04-24 11:35:00,76.5,44.4,30.06,WSW,256,1.0,6.0,32,0.00,CLR,,0.00,WeatherDisplay:10.37,2013-04-24 08:35:00,
2013-04-24 11:36:00,75.7,43.8,30.06,WNW,292,5.8,5.8,32,0.00,CLR,,0.00,WeatherDisplay:10.37,2013-04-24 08:36:00,
2013-04-24 11:37:00,75.6,43.6,30.06,SW,225,5.8,5.8,32,0.00,CLR,,0.00,WeatherDisplay:10.37,2013-04-24 08:37:00,
2013-04-24 11:38:00,75.4,43.5,30.06,WSW,248,5.8,5.8,32,0.00,CLR,,0.00,WeatherDisplay:10.37,2013-04-24 08:38:00,
2013-04-24 11:40:00,75.4,44.3,30.06,SW,225,5.8,5.8,33,0.00,CLR,,0.00,WeatherDisplay:10.37,2013-04-24 08:40:00,
2013-04-24 11:41:00,75.2,44.1,30.06,SW,225,5.8,5.8,33,0.00,CLR,,0.00,WeatherDisplay:10.37,2013-04-24 08:41:00,
2013-04-24 11:42:00,75.2,44.1,30.06,WSW,248,4.6,4.6,33,0.00,CLR,,0.00,WeatherDisplay:10.37,2013-04-24 08:42:00,
2013-04-24 11:43:00,75.6,44.4,30.06,WSW,248,4.6,4.6,33,0.00,CLR,,0.00,WeatherDisplay:10.37,2013-04-24 08:43:00,
2013-04-24 11:45:00,75.4,44.3,30.06,WNW,292,4.6,4.6,33,0.00,CLR,,0.00,WeatherDisplay:10.37,2013-04-24 08:45:00,
2013-04-24 11:46:00,75.6,43.6,30.06,West,270,4.6,4.6,32,0.00,CLR,,0.00,WeatherDisplay:10.37,2013-04-24 08:46:00,
2013-04-24 11:47:00,75.9,43.9,30.06,WSW,248,4.9,4.9,32,0.00,CLR,,0.00,WeatherDisplay:10.37,2013-04-24 08:47:00,
2013-04-24 11:49:00,75.9,43.9,30.06,SSW,202,5.8,5.8,32,0.00,CLR,,0.00,WeatherDisplay:10.37,2013-04-24 08:49:00,
2013-04-24 11:50:00,76.3,44.2,30.06,WSW,248,4.0,4.0,32,0.00,CLR,,0.00,WeatherDisplay:10.37,2013-04-24 08:50:00,
2013-04-24 11:51:00,76.1,44.1,30.06,West,270,4.6,4.6,32,0.00,CLR,,0.00,WeatherDisplay:10.37,2013-04-24 08:51:00,
2013-04-24 11:53:00,76.5,44.4,30.06,WNW,292,2.3,2.3,32,0.00,CLR,,0.00,WeatherDisplay:10.37,2013-04-24 08:53:00,
2013-04-24 11:54:00,76.6,44.6,30.06,WSW,248,4.0,4.0,32,0.00,CLR,,0.00,WeatherDisplay:10.37,2013-04-24 08:54:00,
2013-04-24 11:55:00,76.8,44.7,30.06,WNW,292,4.6,4.6,32,0.00,CLR,,0.00,WeatherDisplay:10.37,2013-04-24 08:55:00,
2013-04-24 11:56:00,77.4,45.2,30.06,West,270,3.5,3.5,32,0.00,CLR,,0.00,WeatherDisplay:10.37,2013-04-24 08:56:00,
2013-04-24 11:57:00,77.4,45.2,30.06,South,180,3.5,3.5,32,0.00,CLR,,0.00,WeatherDisplay:10.37,2013-04-24 08:57:00,
2013-04-24 11:58:00,77.2,45.0,30.06,WSW,248,2.3,2.3,32,0.00,CLR,,0.00,WeatherDisplay:10.37,2013-04-24 08:58:00,
2013-04-24 11:59:00,76.5,44.4,30.06,WSW,248,3.5,3.5,32,0.00,CLR,,0.00,WeatherDisplay:10.37,2013-04-24 08:59:00,
2013-04-24 12:00:00,76.8,44.7,30.06,WSW,248,3.5,3.5,32,0.00,CLR,,0.00,WeatherDisplay:10.37,2013-04-24 09:00:00,
2013-04-24 12:02:00,77.4,45.2,30.06,SSW,202,3.5,3.5,32,0.00,CLR,,0.00,WeatherDisplay:10.37,2013-04-24 09:02:00,
2013-04-24 12:03:00,77.4,45.2,30.06,WSW,248,4.6,4.6,32,0.00,CLR,,0.00,WeatherDisplay:10.37,2013-04-24 09:03:00,
2013-04-24 12:04:00,76.8,44.7,30.06,WSW,248,4.6,4.6,32,0.00,CLR,,0.00,WeatherDisplay:10.37,2013-04-24 09:04:00,
2013-04-24 12:06:00,76.8,44.7,30.06,SSW,202,4.6,4.6,32,0.00,CLR,,0.00,WeatherDisplay:10.37,2013-04-24 09:06:00,
2013-04-24 12:07:00,76.8,44.7,30.06,WSW,248,3.8,3.8,32,0.00,CLR,,0.00,WeatherDisplay:10.37,2013-04-24 09:07:00,
2013-04-24 12:08:00,76.5,44.4,30.06,SW,225,5.8,5.8,32,0.00,CLR,,0.00,WeatherDisplay:10.37,2013-04-24 09:08:00,
2013-04-24 12:09:00,76.6,44.6,30.06,SSW,202,5.8,5.8,32,0.00,CLR,,0.00,WeatherDisplay:10.37,2013-04-24 09:09:00,
2013-04-24 12:11:00,76.1,44.1,30.06,South,180,9.2,9.2,32,0.00,CLR,,0.00,WeatherDisplay:10.37,2013-04-24 09:11:00,
2013-04-24 12:12:00,76.3,44.2,30.06,SW,225,9.2,9.2,32,0.00,CLR,,0.00,WeatherDisplay:10.37,2013-04-24 09:12:00,
2013-04-24 12:13:00,76.3,44.2,30.06,SSE,158,4.6,4.6,32,0.00,CLR,,0.00,WeatherDisplay:10.37,2013-04-24 09:13:00,
2013-04-24 12:15:00,76.6,44.6,30.06,SW,225,5.8,5.8,32,0.00,CLR,,0.00,WeatherDisplay:10.37,2013-04-24 09:15:00,
2013-04-24 12:16:00,76.3,44.2,30.06,SSW,202,5.4,5.4,32,0.00,CLR,,0.00,WeatherDisplay:10.37,2013-04-24 09:16:00,
2013-04-24 12:17:00,76.5,44.4,30.06,SSW,202,6.9,6.9,32,0.00,CLR,,0.00,WeatherDisplay:10.37,2013-04-24 09:17:00,
2013-04-24 12:18:00,76.5,44.4,30.06,SSW,202,3.5,3.5,32,0.00,CLR,,0.00,WeatherDisplay:10.37,2013-04-24 09:18:00,
2013-04-24 12:20:00,76.5,44.4,30.06,SSE,158,5.8,5.8,32,0.00,CLR,,0.00,WeatherDisplay:10.37,2013-04-24 09:20:00,
2013-04-24 12:21:00,77.0,44.9,30.06,WNW,292,1.4,1.4,32,0.00,CLR,,0.00,WeatherDisplay:10.37,2013-04-24 09:21:00,
2013-04-24 12:22:00,77.4,45.2,30.06,South,180,2.4,2.9,32,0.00,CLR,,0.00,WeatherDisplay:10.37,2013-04-24 09:22:00,
2013-04-24 12:23:00,77.0,44.9,30.06,SSE,158,2.9,2.9,32,0.00,CLR,,0.00,WeatherDisplay:10.37,2013-04-24 09:23:00,
2013-04-24 12:25:00,76.5,44.4,30.06,SSE,158,4.6,4.6,32,0.00,CLR,,0.00,WeatherDisplay:10.37,2013-04-24 09:25:00,
2013-04-24 12:26:00,77.0,44.9,30.06,West,270,4.6,0.0,32,0.00,CLR,,0.00,WeatherDisplay:10.37,2013-04-24 09:26:00,
2013-04-24 12:28:00,77.4,45.2,30.06,WSW,248,1.2,1.2,32,0.00,CLR,,0.00,WeatherDisplay:10.37,2013-04-24 09:28:00,
2013-04-24 12:30:00,77.2,44.2,30.06,WSW,248,4.6,4.6,31,0.00,CLR,,0.00,WeatherDisplay:10.37,2013-04-24 09:30:00,
2013-04-24 12:32:00,77.5,44.5,30.06,SSW,202,2.3,2.3,31,0.00,CLR,,0.00,WeatherDisplay:10.37,2013-04-24 09:32:00,
2013-04-24 12:33:00,77.9,45.7,30.06,SW,225,3.1,3.1,32,0.00,CLR,,0.00,WeatherDisplay:10.37,2013-04-24 09:33:00,
2013-04-24 12:35:00,78.1,45.0,30.06,WSW,248,2.9,2.9,31,0.00,CLR,,0.00,WeatherDisplay:10.37,2013-04-24 09:35:00,
2013-04-24 12:37:00,77.9,44.8,30.06,WSW,248,2.3,2.3,31,0.00,CLR,,0.00,WeatherDisplay:10.37,2013-04-24 09:37:00,
2013-04-24 12:38:00,77.9,44.8,30.06,SW,225,3.5,3.5,31,0.00,CLR,,0.00,WeatherDisplay:10.37,2013-04-24 09:38:00,
2013-04-24 12:39:00,78.3,45.1,30.06,SW,225,1.2,0.0,31,0.00,CLR,,0.00,WeatherDisplay:10.37,2013-04-24 09:39:00,
2013-04-24 12:40:00,77.9,44.8,30.06,West,270,4.6,4.6,31,0.00,CLR,,0.00,WeatherDisplay:10.37,2013-04-24 09:40:00,
2013-04-24 12:42:00,78.1,45.0,30.06,WSW,248,2.4,2.4,31,0.00,CLR,,0.00,WeatherDisplay:10.37,2013-04-24 09:42:00,
2013-04-24 12:43:00,77.9,44.8,30.06,SSE,158,4.6,4.6,31,0.00,CLR,,0.00,WeatherDisplay:10.37,2013-04-24 09:43:00,
2013-04-24 12:44:00,77.4,44.4,30.06,South,180,4.6,4.6,31,0.00,CLR,,0.00,WeatherDisplay:10.37,2013-04-24 09:44:00,
2013-04-24 12:46:00,76.5,43.6,30.06,SW,225,4.3,4.3,31,0.00,CLR,,0.00,WeatherDisplay:10.37,2013-04-24 09:46:00,
2013-04-24 12:47:00,76.8,43.9,30.06,SSW,202,4.6,4.6,31,0.00,CLR,,0.00,WeatherDisplay:10.37,2013-04-24 09:47:00,
2013-04-24 12:48:00,76.8,43.9,30.06,SSW,202,4.6,4.6,31,0.00,CLR,,0.00,WeatherDisplay:10.37,2013-04-24 09:48:00,
2013-04-24 12:49:00,77.2,44.2,30.06,SSW,202,6.2,6.2,31,0.00,CLR,,0.00,WeatherDisplay:10.37,2013-04-24 09:49:00,
2013-04-24 12:51:00,76.6,42.0,30.06,SSW,202,3.6,3.6,29,0.00,CLR,,0.00,WeatherDisplay:10.37,2013-04-24 09:51:00,
2013-04-24 12:52:00,75.9,43.1,30.06,SSE,158,5.8,5.8,31,0.00,CLR,,0.00,WeatherDisplay:10.37,2013-04-24 09:52:00,
2013-04-24 12:53:00,75.9,43.1,30.06,West,270,5.8,5.8,31,0.00,CLR,,0.00,WeatherDisplay:10.37,2013-04-24 09:53:00,
2013-04-24 12:54:00,76.3,43.4,30.06,SSW,202,4.6,4.6,31,0.00,CLR,,0.00,WeatherDisplay:10.37,2013-04-24 09:54:00,
2013-04-24 12:56:00,76.6,43.7,30.06,WSW,248,4.7,4.7,31,0.00,CLR,,0.00,WeatherDisplay:10.37,2013-04-24 09:56:00,
2013-04-24 12:58:00,77.2,44.2,30.06,WSW,248,3.5,3.5,31,0.00,CLR,,0.00,WeatherDisplay:10.37,2013-04-24 09:58:00,
2013-04-24 12:59:00,77.5,44.5,30.06,SW,225,3.5,3.5,31,0.00,CLR,,0.00,WeatherDisplay:10.37,2013-04-24 09:59:00,
2013-04-24 13:01:00,76.1,41.5,30.06,SSE,158,8.1,8.1,29,0.00,CLR,,0.00,WeatherDisplay:10.37,2013-04-24 10:01:00,
2013-04-24 13:03:00,75.6,41.1,30.06,SSW,202,5.8,5.8,29,0.00,CLR,,0.00,WeatherDisplay:10.37,2013-04-24 10:03:00,
2013-04-24 13:04:00,75.4,40.9,30.06,South,180,5.8,5.8,29,0.00,CLR,,0.00,WeatherDisplay:10.37,2013-04-24 10:04:00,
2013-04-24 13:06:00,75.7,42.9,30.06,SSW,202,3.5,3.5,31,0.00,CLR,,0.00,WeatherDisplay:10.37,2013-04-24 10:06:00,
2013-04-24 13:08:00,75.9,43.1,30.06,SSW,202,4.6,4.6,31,0.00,CLR,,0.00,WeatherDisplay:10.37,2013-04-24 10:08:00,
2013-04-24 13:09:00,76.1,43.3,30.06,WSW,248,3.5,3.5,31,0.00,CLR,,0.00,WeatherDisplay:10.37,2013-04-24 10:09:00,
2013-04-24 13:10:00,76.5,43.6,30.06,SSE,158,2.3,2.3,31,0.00,CLR,,0.00,WeatherDisplay:10.37,2013-04-24 10:10:00,
2013-04-24 13:12:00,77.0,44.0,30.06,SSE,158,2.3,2.3,31,0.00,CLR,,0.00,WeatherDisplay:10.37,2013-04-24 10:12:00,
2013-04-24 13:13:00,77.9,44.8,30.06,SSW,202,2.3,2.3,31,0.00,CLR,,0.00,WeatherDisplay:10.37,2013-04-24 10:13:00,
2013-04-24 13:14:00,78.3,45.1,30.06,SSW,202,1.4,1.4,31,0.00,CLR,,0.00,WeatherDisplay:10.37,2013-04-24 10:14:00,
2013-04-24 13:15:00,78.1,43.2,30.06,South,180,6.7,6.7,29,0.00,CLR,,0.00,WeatherDisplay:10.37,2013-04-24 10:15:00,
2013-04-24 13:17:00,77.4,42.6,30.06,SSW,202,6.9,6.9,29,0.00,CLR,,0.00,WeatherDisplay:10.37,2013-04-24 10:17:00,
2013-04-24 13:19:00,78.1,43.2,30.06,SE,135,3.5,3.5,29,0.00,CLR,,0.00,WeatherDisplay:10.37,2013-04-24 10:19:00,
2013-04-24 13:20:00,78.4,43.5,30.06,WSW,248,2.3,2.3,29,0.00,CLR,,0.00,WeatherDisplay:10.37,2013-04-24 10:20:00,
2013-04-24 13:22:00,78.1,43.2,30.06,West,270,4.6,4.6,29,0.00,CLR,,0.00,WeatherDisplay:10.37,2013-04-24 10:22:00,
2013-04-24 13:24:00,77.7,42.9,30.06,WNW,292,5.8,5.8,29,0.00,CLR,,0.00,WeatherDisplay:10.37,2013-04-24 10:24:00,
2013-04-24 13:25:00,77.9,43.1,30.06,NNW,338,4.3,4.3,29,0.00,CLR,,0.00,WeatherDisplay:10.37,2013-04-24 10:25:00,
2013-04-24 13:27:00,78.3,43.4,30.06,SSW,202,3.5,3.5,29,0.00,CLR,,0.00,WeatherDisplay:10.37,2013-04-24 10:27:00,
2013-04-24 13:29:00,78.6,43.7,30.06,SSW,202,2.3,2.3,29,0.00,CLR,,0.00,WeatherDisplay:10.37,2013-04-24 10:29:00,
2013-04-24 13:30:00,78.6,43.7,30.06,WNW,292,4.6,4.6,29,0.00,CLR,,0.00,WeatherDisplay:10.37,2013-04-24 10:30:00,
2013-04-24 13:31:00,78.6,43.7,30.06,WSW,248,4.6,4.6,29,0.00,CLR,,0.00,WeatherDisplay:10.37,2013-04-24 10:31:00,
2013-04-24 13:32:00,78.6,43.7,30.06,SW,225,3.5,3.5,29,0.00,CLR,,0.00,WeatherDisplay:10.37,2013-04-24 10:32:00,
2013-04-24 13:34:00,78.8,42.9,30.06,SSW,202,3.1,3.1,28,0.00,CLR,,0.00,WeatherDisplay:10.37,2013-04-24 10:34:00,
2013-04-24 13:35:00,79.1,43.2,30.06,SSW,206,1.0,5.0,28,0.00,CLR,,0.00,WeatherDisplay:10.37,2013-04-24 10:35:00,
2013-04-24 13:36:00,78.4,43.5,30.06,South,180,4.9,4.9,29,0.00,CLR,,0.00,WeatherDisplay:10.37,2013-04-24 10:36:00,
2013-04-24 13:37:00,78.3,43.4,30.06,SSW,202,4.6,4.6,29,0.00,CLR,,0.00,WeatherDisplay:10.37,2013-04-24 10:37:00,
2013-04-24 13:40:00,78.3,43.4,30.06,South,180,4.6,4.6,29,0.00,CLR,,0.00,WeatherDisplay:10.37,2013-04-24 10:40:00,
2013-04-24 13:41:00,78.6,43.7,30.06,SSW,202,2.3,2.4,29,0.00,CLR,,0.00,WeatherDisplay:10.37,2013-04-24 10:41:00,
2013-04-24 13:42:00,78.8,42.9,30.06,SSW,202,3.5,3.5,28,0.00,CLR,,0.00,WeatherDisplay:10.37,2013-04-24 10:42:00,
2013-04-24 13:45:00,78.6,43.7,30.06,South,180,3.5,3.5,29,0.00,CLR,,0.00,WeatherDisplay:10.37,2013-04-24 10:45:00,
2013-04-24 13:46:00,78.8,42.9,30.06,South,180,3.5,3.5,28,0.00,CLR,,0.00,WeatherDisplay:10.37,2013-04-24 10:46:00,
2013-04-24 13:47:00,79.5,43.5,30.06,WSW,248,3.6,3.6,28,0.00,CLR,,0.00,WeatherDisplay:10.37,2013-04-24 10:47:00,
2013-04-24 13:50:00,79.3,41.5,30.06,WSW,248,2.9,2.9,26,0.00,CLR,,0.00,WeatherDisplay:10.37,2013-04-24 10:50:00,
2013-04-24 13:51:00,79.2,41.3,30.06,SSW,202,5.8,5.8,26,0.00,CLR,,0.00,WeatherDisplay:10.37,2013-04-24 10:51:00,
2013-04-24 13:52:00,79.3,41.5,30.06,SE,135,4.6,4.6,26,0.00,CLR,,0.00,WeatherDisplay:10.37,2013-04-24 10:52:00,
2013-04-24 13:53:00,79.5,41.6,30.06,NNW,338,2.3,2.3,26,0.00,CLR,,0.00,WeatherDisplay:10.37,2013-04-24 10:53:00,
2013-04-24 13:55:00,79.3,41.5,30.06,SSW,202,6.9,6.9,26,0.00,CLR,,0.00,WeatherDisplay:10.37,2013-04-24 10:55:00,
2013-04-24 13:56:00,78.4,40.7,30.06,SW,225,8.1,8.1,26,0.00,CLR,,0.00,WeatherDisplay:10.37,2013-04-24 10:56:00,
2013-04-24 13:57:00,78.4,40.7,30.06,SSW,202,8.1,8.1,26,0.00,CLR,,0.00,WeatherDisplay:10.37,2013-04-24 10:57:00,
2013-04-24 13:58:00,78.6,40.9,30.06,WSW,248,4.6,4.6,26,0.00,CLR,,0.00,WeatherDisplay:10.37,2013-04-24 10:58:00,
2013-04-24 14:00:00,79.2,41.3,30.06,WSW,248,6.9,6.9,26,0.00,CLR,,0.00,WeatherDisplay:10.37,2013-04-24 11:00:00,
2013-04-24 14:01:00,79.2,41.3,30.06,SW,225,5.8,5.8,26,0.00,CLR,,0.00,WeatherDisplay:10.37,2013-04-24 11:01:00,
2013-04-24 14:02:00,79.5,41.6,30.06,SW,225,3.1,3.1,26,0.00,CLR,,0.00,WeatherDisplay:10.37,2013-04-24 11:02:00,
2013-04-24 14:03:00,79.7,41.8,30.06,ESE,112,3.5,3.5,26,0.00,CLR,,0.00,WeatherDisplay:10.37,2013-04-24 11:03:00,
2013-04-24 14:05:00,78.8,41.0,30.06,SW,225,5.8,5.8,26,0.00,CLR,,0.00,WeatherDisplay:10.37,2013-04-24 11:05:00,
2013-04-24 14:06:00,78.8,41.0,30.06,SW,225,5.8,5.8,26,0.00,CLR,,0.00,WeatherDisplay:10.37,2013-04-24 11:06:00,
2013-04-24 14:07:00,78.6,40.9,30.06,West,270,7.1,7.1,26,0.00,CLR,,0.00,WeatherDisplay:10.37,2013-04-24 11:07:00,
2013-04-24 14:08:00,78.6,40.9,30.03,WSW,248,6.9,6.9,26,0.00,CLR,,0.00,WeatherDisplay:10.37,2013-04-24 11:08:00,
2013-04-24 14:10:00,79.2,41.3,30.03,SW,225,1.2,1.2,26,0.00,CLR,,0.00,WeatherDisplay:10.37,2013-04-24 11:10:00,
2013-04-24 14:11:00,79.5,41.6,30.03,SW,225,3.8,3.8,26,0.00,CLR,,0.00,WeatherDisplay:10.37,2013-04-24 11:11:00,
2013-04-24 14:12:00,79.2,41.3,30.03,SSW,202,4.6,4.6,26,0.00,CLR,,0.00,WeatherDisplay:10.37,2013-04-24 11:12:00,
2013-04-24 14:13:00,79.2,41.3,30.03,SW,225,4.6,4.6,26,0.00,CLR,,0.00,WeatherDisplay:10.37,2013-04-24 11:13:00,
2013-04-24 14:15:00,79.0,41.2,30.03,SSW,202,4.6,4.6,26,0.00,CLR,,0.00,WeatherDisplay:10.37,2013-04-24 11:15:00,
2013-04-24 14:16:00,78.8,41.0,30.03,SSW,202,4.9,4.9,26,0.00,CLR,,0.00,WeatherDisplay:10.37,2013-04-24 11:16:00,
2013-04-24 14:17:00,78.4,40.7,30.03,SSE,158,5.8,5.8,26,0.00,CLR,,0.00,WeatherDisplay:10.37,2013-04-24 11:17:00,
2013-04-24 14:18:00,78.1,40.4,30.03,SSW,202,7.4,7.4,26,0.00,CLR,,0.00,WeatherDisplay:10.37,2013-04-24 11:18:00,
2013-04-24 14:20:00,77.7,40.1,30.03,WSW,248,6.0,6.0,26,0.00,CLR,,0.00,WeatherDisplay:10.37,2013-04-24 11:20:00,
2013-04-24 14:22:00,77.9,40.2,30.03,SSW,202,5.8,5.8,26,0.00,CLR,,0.00,WeatherDisplay:10.37,2013-04-24 11:22:00,
2013-04-24 14:23:00,77.9,40.2,30.03,WSW,248,8.1,8.1,26,0.00,CLR,,0.00,WeatherDisplay:10.37,2013-04-24 11:23:00,
2013-04-24 14:25:00,78.1,40.4,30.03,SW,225,4.6,4.6,26,0.00,CLR,,0.00,WeatherDisplay:10.37,2013-04-24 11:25:00,
2013-04-24 14:28:00,77.9,40.2,30.03,WSW,248,4.6,4.6,26,0.00,CLR,,0.00,WeatherDisplay:10.37,2013-04-24 11:28:00,
2013-04-24 14:29:00,78.3,43.4,30.03,SSW,202,4.6,4.6,29,0.00,CLR,,0.00,WeatherDisplay:10.37,2013-04-24 11:29:00,
2013-04-24 14:30:00,77.9,40.2,30.03,SSW,202,4.6,4.6,26,0.00,CLR,,0.00,WeatherDisplay:10.37,2013-04-24 11:30:00,
2013-04-24 14:33:00,78.1,43.2,30.03,SW,225,4.6,4.6,29,0.00,CLR,,0.00,WeatherDisplay:10.37,2013-04-24 11:33:00,
2013-04-24 14:34:00,77.7,42.9,30.03,SSW,202,4.6,4.6,29,0.00,CLR,,0.00,WeatherDisplay:10.37,2013-04-24 11:34:00,
2013-04-24 14:35:00,78.6,43.7,30.03,SW,225,4.6,4.6,29,0.00,CLR,,0.00,WeatherDisplay:10.37,2013-04-24 11:35:00,
2013-04-24 14:38:00,78.8,42.9,30.03,South,180,4.6,4.6,28,0.00,CLR,,0.00,WeatherDisplay:10.37,2013-04-24 11:38:00,
2013-04-24 14:39:00,79.0,43.1,30.03,SW,225,4.6,4.6,28,0.00,CLR,,0.00,WeatherDisplay:10.37,2013-04-24 11:39:00,
2013-04-24 14:41:00,78.6,43.7,30.03,WSW,248,6.4,6.4,29,0.00,CLR,,0.00,WeatherDisplay:10.37,2013-04-24 11:41:00,
2013-04-24 14:44:00,78.4,43.5,30.03,South,180,2.3,2.3,29,0.00,CLR,,0.00,WeatherDisplay:10.37,2013-04-24 11:44:00,
2013-04-24 14:46:00,78.6,43.7,30.03,SW,225,5.8,5.8,29,0.00,CLR,,0.00,WeatherDisplay:10.37,2013-04-24 11:46:00,
2013-04-24 14:49:00,78.4,43.5,30.03,SSE,158,6.9,6.9,29,0.00,CLR,,0.00,WeatherDisplay:10.37,2013-04-24 11:49:00,
2013-04-24 14:51:00,79.0,43.1,30.03,South,180,3.5,3.5,28,0.00,CLR,,0.00,WeatherDisplay:10.37,2013-04-24 11:51:00,
2013-04-24 14:54:00,78.8,42.9,30.06,SSW,202,5.8,5.8,28,0.00,CLR,,0.00,WeatherDisplay:10.37,2013-04-24 11:54:00,
2013-04-24 14:56:00,78.3,43.4,30.06,SSW,202,5.8,5.8,29,0.00,CLR,,0.00,WeatherDisplay:10.37,2013-04-24 11:56:00,
2013-04-24 14:59:00,78.4,43.5,30.06,SW,225,5.8,5.8,29,0.00,CLR,,0.00,WeatherDisplay:10.37,2013-04-24 11:59:00,
2013-04-24 15:00:00,78.3,40.5,30.06,SSW,202,5.9,5.9,26,0.00,CLR,,0.00,WeatherDisplay:10.37,2013-04-24 12:00:00,
2013-04-24 15:01:00,78.3,40.5,30.06,WSW,248,5.8,5.8,26,0.00,CLR,,0.00,WeatherDisplay:10.37,2013-04-24 12:01:00,
2013-04-24 15:04:00,77.9,43.1,30.06,WSW,248,5.8,5.8,29,0.00,CLR,,0.00,WeatherDisplay:10.37,2013-04-24 12:04:00,
2013-04-24 15:05:00,77.9,40.2,30.06,SW,225,6.2,6.2,26,0.00,CLR,,0.00,WeatherDisplay:10.37,2013-04-24 12:05:00,
2013-04-24 15:06:00,77.7,40.1,30.06,WSW,248,5.8,5.8,26,0.00,CLR,,0.00,WeatherDisplay:10.37,2013-04-24 12:06:00,
2013-04-24 15:09:00,78.1,43.2,30.00,South,180,3.5,3.5,29,0.00,CLR,,0.00,WeatherDisplay:10.37,2013-04-24 12:09:00,
2013-04-24 15:10:00,77.9,40.2,30.00,South,180,5.6,5.6,26,0.00,CLR,,0.00,WeatherDisplay:10.37,2013-04-24 12:10:00,
2013-04-24 15:11:00,77.5,39.9,30.00,SSW,202,5.8,5.8,26,0.00,CLR,,0.00,WeatherDisplay:10.37,2013-04-24 12:11:00,
2013-04-24 15:15:00,77.4,39.8,30.00,SSW,202,4.6,4.6,26,0.00,CLR,,0.00,WeatherDisplay:10.37,2013-04-24 12:15:00,
2013-04-24 15:16:00,77.7,42.9,30.00,WSW,248,3.5,3.5,29,0.00,CLR,,0.00,WeatherDisplay:10.37,2013-04-24 12:16:00,
2013-04-24 15:20:00,77.4,42.6,30.00,SSW,202,8.1,8.1,29,0.00,CLR,,0.00,WeatherDisplay:10.37,2013-04-24 12:20:00,
2013-04-24 15:21:00,77.2,42.5,30.00,South,180,8.1,8.1,29,0.00,CLR,,0.00,WeatherDisplay:10.37,2013-04-24 12:21:00,
2013-04-24 15:25:00,76.8,42.1,30.03,SW,225,4.6,4.6,29,0.00,CLR,,0.00,WeatherDisplay:10.37,2013-04-24 12:25:00,
2013-04-24 15:26:00,76.8,42.1,30.03,SSE,158,4.6,4.6,29,0.00,CLR,,0.00,WeatherDisplay:10.37,2013-04-24 12:26:00,
2013-04-24 15:31:00,77.4,42.6,30.03,WNW,292,3.6,3.6,29,0.00,CLR,,0.00,WeatherDisplay:10.37,2013-04-24 12:31:00,
2013-04-24 15:32:00,77.5,42.8,30.03,SSW,202,3.5,3.5,29,0.00,CLR,,0.00,WeatherDisplay:10.37,2013-04-24 12:32:00,
2013-04-24 15:36:00,77.9,43.1,30.03,SW,225,4.6,4.6,29,0.00,CLR,,0.00,WeatherDisplay:10.37,2013-04-24 12:36:00,
2013-04-24 15:37:00,77.9,43.1,30.03,WSW,248,5.8,5.8,29,0.00,CLR,,0.00,WeatherDisplay:10.37,2013-04-24 12:37:00,
2013-04-24 15:41:00,78.1,43.2,30.03,WSW,248,5.8,5.8,29,0.00,CLR,,0.00,WeatherDisplay:10.37,2013-04-24 12:41:00,
2013-04-24 15:42:00,78.1,43.2,30.03,SW,225,5.8,5.8,29,0.00,CLR,,0.00,WeatherDisplay:10.37,2013-04-24 12:42:00,
2013-04-24 15:46:00,78.1,40.4,30.03,WSW,248,5.9,5.9,26,0.00,CLR,,0.00,WeatherDisplay:10.37,2013-04-24 12:46:00,
2013-04-24 15:47:00,77.7,40.1,30.03,WSW,248,6.9,6.9,26,0.00,CLR,,0.00,WeatherDisplay:10.37,2013-04-24 12:47:00,
2013-04-24 15:51:00,77.5,39.9,30.03,SSW,202,6.9,6.9,26,0.00,CLR,,0.00,WeatherDisplay:10.37,2013-04-24 12:51:00,
2013-04-24 15:52:00,77.5,39.9,30.03,WSW,248,6.9,6.9,26,0.00,CLR,,0.00,WeatherDisplay:10.37,2013-04-24 12:52:00,
2013-04-24 15:56:00,78.1,43.2,30.03,WSW,248,8.5,8.5,29,0.00,CLR,,0.00,WeatherDisplay:10.37,2013-04-24 12:56:00,
2013-04-24 15:57:00,78.1,43.2,30.03,West,270,6.4,6.4,29,0.00,CLR,,0.00,WeatherDisplay:10.37,2013-04-24 12:57:00,
2013-04-24 15:58:00,78.3,43.4,30.03,SW,225,5.8,5.8,29,0.00,CLR,,0.00,WeatherDisplay:10.37,2013-04-24 12:58:00,
2013-04-24 16:02:00,79.3,43.4,30.03,SSE,158,2.3,2.3,28,0.00,CLR,,0.00,WeatherDisplay:10.37,2013-04-24 13:02:00,
2013-04-24 16:03:00,79.2,43.2,30.03,West,270,4.6,4.6,28,0.00,CLR,,0.00,WeatherDisplay:10.37,2013-04-24 13:03:00,
2013-04-24 16:07:00,78.8,42.9,30.03,WSW,248,6.9,6.9,28,0.00,CLR,,0.00,WeatherDisplay:10.37,2013-04-24 13:07:00,
2013-04-24 16:08:00,78.6,43.7,30.03,West,270,6.9,6.9,29,0.00,CLR,,0.00,WeatherDisplay:10.37,2013-04-24 13:08:00,
2013-04-24 16:12:00,79.3,43.4,30.03,SSW,202,6.0,6.0,28,0.00,CLR,,0.00,WeatherDisplay:10.37,2013-04-24 13:12:00,
2013-04-24 16:13:00,79.3,43.4,30.03,SSW,202,5.9,5.9,28,0.00,CLR,,0.00,WeatherDisplay:10.37,2013-04-24 13:13:00,
2013-04-24 16:17:00,77.4,39.8,30.03,WSW,248,5.8,5.8,26,0.00,CLR,,0.00,WeatherDisplay:10.37,2013-04-24 13:17:00,
2013-04-24 16:18:00,77.5,39.9,30.03,WSW,248,5.8,5.8,26,0.00,CLR,,0.00,WeatherDisplay:10.37,2013-04-24 13:18:00,
2013-04-24 16:19:00,77.9,43.1,30.03,West,270,5.8,5.8,29,0.00,CLR,,0.00,WeatherDisplay:10.37,2013-04-24 13:19:00,
2013-04-24 16:22:00,77.5,39.9,30.03,WSW,248,5.8,5.8,26,0.00,CLR,,0.00,WeatherDisplay:10.37,2013-04-24 13:22:00,
2013-04-24 16:23:00,77.7,40.1,30.03,SSW,202,5.8,5.8,26,0.00,CLR,,0.00,WeatherDisplay:10.37,2013-04-24 13:23:00,
2013-04-24 16:24:00,77.7,40.1,30.03,South,180,4.6,4.6,26,0.00,CLR,,0.00,WeatherDisplay:10.37,2013-04-24 13:24:00,
2013-04-24 16:27:00,77.9,43.1,30.03,WSW,248,4.3,4.3,29,0.00,CLR,,0.00,WeatherDisplay:10.37,2013-04-24 13:27:00,
2013-04-24 16:28:00,77.9,43.1,30.03,WSW,248,5.8,5.8,29,0.00,CLR,,0.00,WeatherDisplay:10.37,2013-04-24 13:28:00,
2013-04-24 16:29:00,77.9,43.1,30.03,WSW,248,5.8,5.8,29,0.00,CLR,,0.00,WeatherDisplay:10.37,2013-04-24 13:29:00,
2013-04-24 16:33:00,76.6,42.0,30.03,West,270,8.1,8.1,29,0.00,CLR,,0.00,WeatherDisplay:10.37,2013-04-24 13:33:00,
2013-04-24 16:34:00,76.3,41.7,30.03,WSW,248,8.1,8.1,29,0.00,CLR,,0.00,WeatherDisplay:10.37,2013-04-24 13:34:00,
2013-04-24 16:38:00,76.1,41.5,30.03,West,270,9.2,9.2,29,0.00,CLR,,0.00,WeatherDisplay:10.37,2013-04-24 13:38:00,
2013-04-24 16:39:00,76.3,41.7,30.03,SSW,202,5.8,5.8,29,0.00,CLR,,0.00,WeatherDisplay:10.37,2013-04-24 13:39:00,
2013-04-24 16:43:00,76.6,42.0,30.03,South,180,6.9,6.9,29,0.00,CLR,,0.00,WeatherDisplay:10.37,2013-04-24 13:43:00,
2013-04-24 16:44:00,77.0,42.3,30.03,WNW,292,3.5,3.5,29,0.00,CLR,,0.00,WeatherDisplay:10.37,2013-04-24 13:44:00,
2013-04-24 16:48:00,77.4,42.6,30.03,WNW,292,4.6,4.6,29,0.00,CLR,,0.00,WeatherDisplay:10.37,2013-04-24 13:48:00,
2013-04-24 16:49:00,77.4,42.6,30.03,West,270,4.6,4.6,29,0.00,CLR,,0.00,WeatherDisplay:10.37,2013-04-24 13:49:00,
2013-04-24 16:54:00,78.3,43.4,30.03,WSW,248,4.0,4.0,29,0.00,CLR,,0.00,WeatherDisplay:10.37,2013-04-24 13:54:00,
2013-04-24 16:59:00,78.4,43.5,30.03,WSW,248,4.6,4.6,29,0.00,CLR,,0.00,WeatherDisplay:10.37,2013-04-24 13:59:00,
2013-04-24 17:00:00,78.4,43.5,30.03,WSW,248,4.6,4.6,29,0.00,CLR,,0.00,WeatherDisplay:10.37,2013-04-24 14:00:00,
2013-04-24 17:04:00,78.6,43.7,30.03,West,270,3.5,3.5,29,0.00,CLR,,0.00,WeatherDisplay:10.37,2013-04-24 14:04:00,
2013-04-24 17:05:00,79.0,43.1,30.03,WNW,292,3.5,3.5,28,0.00,CLR,,0.00,WeatherDisplay:10.37,2013-04-24 14:05:00,
2013-04-24 17:09:00,79.2,43.2,30.00,SSW,202,5.8,5.8,28,0.00,CLR,,0.00,WeatherDisplay:10.37,2013-04-24 14:09:00,
2013-04-24 17:10:00,78.8,42.9,30.00,SSW,202,5.8,5.8,28,0.00,CLR,,0.00,WeatherDisplay:10.37,2013-04-24 14:10:00,
2013-04-24 17:15:00,79.2,43.2,30.00,NW,315,4.6,4.6,28,0.00,CLR,,0.00,WeatherDisplay:10.37,2013-04-24 14:15:00,
2013-04-24 17:20:00,79.3,41.5,30.00,WNW,292,5.8,5.8,26,0.00,CLR,,0.00,WeatherDisplay:10.37,2013-04-24 14:20:00,
2013-04-24 17:25:00,78.8,42.9,30.03,WSW,248,3.8,3.8,28,0.00,CLR,,0.00,WeatherDisplay:10.37,2013-04-24 14:25:00,
2013-04-24 17:26:00,78.8,42.9,30.03,WNW,292,3.5,3.5,28,0.00,CLR,,0.00,WeatherDisplay:10.37,2013-04-24 14:26:00,
2013-04-24 17:30:00,79.0,43.1,30.03,NNW,338,6.4,6.4,28,0.00,CLR,,0.00,WeatherDisplay:10.37,2013-04-24 14:30:00,
2013-04-24 17:31:00,78.8,42.9,30.03,WNW,292,6.9,6.9,28,0.00,CLR,,0.00,WeatherDisplay:10.37,2013-04-24 14:31:00,
2013-04-24 17:35:00,79.0,41.2,30.03,North,0,8.1,8.1,26,0.00,CLR,,0.00,WeatherDisplay:10.37,2013-04-24 14:35:00,
2013-04-24 17:37:00,78.8,41.0,30.03,NNW,338,6.2,6.2,26,0.00,CLR,,0.00,WeatherDisplay:10.37,2013-04-24 14:37:00,
2013-04-24 17:40:00,78.6,40.9,30.03,NNE,22,8.1,8.1,26,0.00,CLR,,0.00,WeatherDisplay:10.37,2013-04-24 14:40:00,
2013-04-24 17:41:00,78.8,41.0,30.03,NW,315,8.1,8.1,26,0.00,CLR,,0.00,WeatherDisplay:10.37,2013-04-24 14:41:00,
2013-04-24 17:42:00,79.0,41.2,30.03,WSW,248,6.9,6.9,26,0.00,CLR,,0.00,WeatherDisplay:10.37,2013-04-24 14:42:00,
2013-04-24 17:45:00,78.6,40.9,30.03,NNW,338,9.8,9.8,26,0.00,CLR,,0.00,WeatherDisplay:10.37,2013-04-24 14:45:00,
2013-04-24 17:46:00,78.6,40.9,30.03,NNW,338,9.2,9.2,26,0.00,CLR,,0.00,WeatherDisplay:10.37,2013-04-24 14:46:00,
2013-04-24 17:47:00,78.8,41.0,30.03,North,0,5.8,5.8,26,0.00,CLR,,0.00,WeatherDisplay:10.37,2013-04-24 14:47:00,
2013-04-24 17:51:00,79.5,41.6,30.03,NW,315,3.5,3.5,26,0.00,CLR,,0.00,WeatherDisplay:10.37,2013-04-24 14:51:00,
2013-04-24 17:53:00,79.5,41.6,30.03,North,0,5.8,5.8,26,0.00,CLR,,0.00,WeatherDisplay:10.37,2013-04-24 14:53:00,
2013-04-24 17:56:00,78.8,41.0,30.00,ENE,68,9.2,9.2,26,0.00,CLR,,0.00,WeatherDisplay:10.37,2013-04-24 14:56:00,
2013-04-24 17:58:00,78.4,40.7,30.00,NNW,338,8.1,8.1,26,0.00,CLR,,0.00,WeatherDisplay:10.37,2013-04-24 14:58:00,
2013-04-24 18:01:00,77.5,39.9,30.00,NNW,338,11.5,11.5,26,0.00,CLR,,0.00,WeatherDisplay:10.37,2013-04-24 15:01:00,
2013-04-24 18:02:00,77.7,40.1,30.00,NNE,22,10.4,10.4,26,0.00,CLR,,0.00,WeatherDisplay:10.37,2013-04-24 15:02:00,
2013-04-24 18:03:00,77.7,40.1,30.00,North,0,8.5,8.5,26,0.00,CLR,,0.00,WeatherDisplay:10.37,2013-04-24 15:03:00,
2013-04-24 18:09:00,77.0,39.5,30.00,ENE,68,8.1,8.1,26,0.00,CLR,,0.00,WeatherDisplay:10.37,2013-04-24 15:09:00,
2013-04-24 18:14:00,77.0,39.5,30.00,NE,45,8.1,8.1,26,0.00,CLR,,0.00,WeatherDisplay:10.37,2013-04-24 15:14:00,
2013-04-24 18:15:00,76.8,39.3,30.00,NNE,22,8.1,8.1,26,0.00,CLR,,0.00,WeatherDisplay:10.37,2013-04-24 15:15:00,
2013-04-24 18:19:00,76.6,39.2,30.00,East,90,8.1,8.1,26,0.00,CLR,,0.00,WeatherDisplay:10.37,2013-04-24 15:19:00,
2013-04-24 18:20:00,76.6,39.2,30.00,NNW,338,8.1,8.1,26,0.00,CLR,,0.00,WeatherDisplay:10.37,2013-04-24 15:20:00,
2013-04-24 18:24:00,76.5,39.0,30.03,NNW,338,9.2,9.2,26,0.00,CLR,,0.00,WeatherDisplay:10.37,2013-04-24 15:24:00,
2013-04-24 18:25:00,76.5,39.0,30.03,North,0,6.9,6.9,26,0.00,CLR,,0.00,WeatherDisplay:10.37,2013-04-24 15:25:00,
2013-04-24 18:29:00,76.3,38.9,30.03,NNE,22,8.1,8.1,26,0.00,CLR,,0.00,WeatherDisplay:10.37,2013-04-24 15:29:00,
2013-04-24 18:30:00,76.3,38.9,30.03,ENE,68,8.1,8.1,26,0.00,CLR,,0.00,WeatherDisplay:10.37,2013-04-24 15:30:00,
2013-04-24 18:34:00,75.9,38.6,30.03,NNE,22,6.9,6.9,26,0.00,CLR,,0.00,WeatherDisplay:10.37,2013-04-24 15:34:00,
2013-04-24 18:35:00,75.9,38.6,30.03,NE,45,8.1,8.1,26,0.00,CLR,,0.00,WeatherDisplay:10.37,2013-04-24 15:35:00,
2013-04-24 18:36:00,75.9,38.6,30.03,WNW,292,8.1,8.1,26,0.00,CLR,,0.00,WeatherDisplay:10.37,2013-04-24 15:36:00,
2013-04-24 18:40:00,76.3,38.9,30.00,NNW,338,3.5,3.5,26,0.00,CLR,,0.00,WeatherDisplay:10.37,2013-04-24 15:40:00,
2013-04-24 18:41:00,76.3,38.9,30.00,NW,315,3.5,3.5,26,0.00,CLR,,0.00,WeatherDisplay:10.37,2013-04-24 15:41:00,
2013-04-24 18:45:00,75.7,38.4,30.00,NE,45,9.2,9.2,26,0.00,CLR,,0.00,WeatherDisplay:10.37,2013-04-24 15:45:00,
2013-04-24 18:46:00,75.7,38.4,30.00,North,0,9.2,9.2,26,0.00,CLR,,0.00,WeatherDisplay:10.37,2013-04-24 15:46:00,
2013-04-24 18:47:00,75.7,38.4,30.00,NNW,338,8.1,8.1,26,0.00,CLR,,0.00,WeatherDisplay:10.37,2013-04-24 15:47:00,
2013-04-24 18:50:00,75.7,38.4,30.00,ENE,68,4.6,4.6,26,0.00,CLR,,0.00,WeatherDisplay:10.37,2013-04-24 15:50:00,
2013-04-24 18:51:00,75.7,38.4,30.00,ENE,68,4.6,4.6,26,0.00,CLR,,0.00,WeatherDisplay:10.37,2013-04-24 15:51:00,
2013-04-24 18:52:00,75.4,38.1,30.00,NE,45,8.1,8.1,26,0.00,CLR,,0.00,WeatherDisplay:10.37,2013-04-24 15:52:00,
2013-04-24 18:55:00,75.2,37.9,30.00,NNE,22,5.8,5.8,26,0.00,CLR,,0.00,WeatherDisplay:10.37,2013-04-24 15:55:00,
2013-04-24 18:56:00,75.2,37.9,30.00,NE,45,6.2,6.2,26,0.00,CLR,,0.00,WeatherDisplay:10.37,2013-04-24 15:56:00,
2013-04-24 18:57:00,75.2,37.9,30.00,ENE,68,5.8,6.2,26,0.00,CLR,,0.00,WeatherDisplay:10.37,2013-04-24 15:57:00,
2013-04-24 19:00:00,74.5,38.3,30.00,NNE,22,9.2,9.2,27,0.00,CLR,,0.00,WeatherDisplay:10.37,2013-04-24 16:00:00,
2013-04-24 19:01:00,74.5,38.3,30.00,ENE,68,8.5,8.5,27,0.00,CLR,,0.00,WeatherDisplay:10.37,2013-04-24 16:01:00,
2013-04-24 19:02:00,74.5,38.3,30.00,NE,45,10.4,10.4,27,0.00,CLR,,0.00,WeatherDisplay:10.37,2013-04-24 16:02:00,
2013-04-24 19:06:00,74.1,38.0,30.00,NNW,338,8.1,8.1,27,0.00,CLR,,0.00,WeatherDisplay:10.37,2013-04-24 16:06:00,
2013-04-24 19:07:00,74.1,38.0,30.00,WNW,292,9.2,9.2,27,0.00,CLR,,0.00,WeatherDisplay:10.37,2013-04-24 16:07:00,
2013-04-24 19:08:00,73.9,37.8,30.03,WNW,292,9.2,9.2,27,0.00,CLR,,0.00,WeatherDisplay:10.37,2013-04-24 16:08:00,
2013-04-24 19:11:00,73.8,39.5,30.03,NW,315,6.9,6.9,29,0.00,CLR,,0.00,WeatherDisplay:10.37,2013-04-24 16:11:00,
2013-04-24 19:12:00,73.8,39.5,30.03,WSW,248,6.9,6.9,29,0.00,CLR,,0.00,WeatherDisplay:10.37,2013-04-24 16:12:00,
2013-04-24 19:13:00,73.8,39.5,30.03,WNW,292,6.9,6.9,29,0.00,CLR,,0.00,WeatherDisplay:10.37,2013-04-24 16:13:00,
2013-04-24 19:16:00,73.4,37.4,30.03,ENE,68,11.5,11.5,27,0.00,CLR,,0.00,WeatherDisplay:10.37,2013-04-24 16:16:00,
2013-04-24 19:17:00,73.4,37.4,30.03,East,90,11.5,11.5,27,0.00,CLR,,0.00,WeatherDisplay:10.37,2013-04-24 16:17:00,
2013-04-24 19:18:00,73.2,37.2,30.03,NNE,22,6.9,6.9,27,0.00,CLR,,0.00,WeatherDisplay:10.37,2013-04-24 16:18:00,
2013-04-24 19:21:00,72.7,36.8,30.03,NE,45,6.0,6.0,27,0.00,CLR,,0.00,WeatherDisplay:10.37,2013-04-24 16:21:00,
2013-04-24 19:22:00,72.7,36.8,30.03,NNE,22,6.9,6.9,27,0.00,CLR,,0.00,WeatherDisplay:10.37,2013-04-24 16:22:00,
2013-04-24 19:23:00,72.7,39.4,30.03,WNW,292,6.9,6.9,30,0.00,CLR,,0.00,WeatherDisplay:10.37,2013-04-24 16:23:00,
2013-04-24 19:27:00,72.3,36.4,30.03,NNW,338,5.4,5.4,27,0.00,CLR,,0.00,WeatherDisplay:10.37,2013-04-24 16:27:00,
2013-04-24 19:28:00,72.3,36.4,30.03,NNE,22,5.8,5.8,27,0.00,CLR,,0.00,WeatherDisplay:10.37,2013-04-24 16:28:00,
2013-04-24 19:32:00,72.1,39.0,30.03,NW,315,2.3,2.3,30,0.00,CLR,,0.00,WeatherDisplay:10.37,2013-04-24 16:32:00,
2013-04-24 19:33:00,71.8,38.7,30.03,NNE,22,8.1,8.1,30,0.00,CLR,,0.00,WeatherDisplay:10.37,2013-04-24 16:33:00,
2013-04-24 19:37:00,71.4,36.6,30.03,ENE,68,4.6,4.6,28,0.00,CLR,,0.00,WeatherDisplay:10.37,2013-04-24 16:37:00,
2013-04-24 19:38:00,71.4,36.6,30.03,NE,45,3.5,3.5,28,0.00,CLR,,0.00,WeatherDisplay:10.37,2013-04-24 16:38:00,
2013-04-24 19:39:00,71.4,36.6,30.03,ESE,112,3.6,3.6,28,0.00,CLR,,0.00,WeatherDisplay:10.37,2013-04-24 16:39:00,
2013-04-24 19:42:00,70.9,36.1,30.03,NNE,22,9.2,9.2,28,0.00,CLR,,0.00,WeatherDisplay:10.37,2013-04-24 16:42:00,
2013-04-24 19:43:00,70.9,36.1,30.03,NNE,22,7.8,7.8,28,0.00,CLR,,0.00,WeatherDisplay:10.37,2013-04-24 16:43:00,
2013-04-24 19:44:00,70.9,36.1,30.03,NNW,338,8.1,8.1,28,0.00,CLR,,0.00,WeatherDisplay:10.37,2013-04-24 16:44:00,
2013-04-24 19:47:00,70.5,35.8,30.03,North,0,10.4,10.4,28,0.00,CLR,,0.00,WeatherDisplay:10.37,2013-04-24 16:47:00,
2013-04-24 19:48:00,70.3,35.7,30.03,NNW,338,8.5,8.5,28,0.00,CLR,,0.00,WeatherDisplay:10.37,2013-04-24 16:48:00,
2013-04-24 19:49:00,70.3,35.7,30.03,NNE,22,8.1,8.1,28,0.00,CLR,,0.00,WeatherDisplay:10.37,2013-04-24 16:49:00,
2013-04-24 19:53:00,70.0,35.4,30.03,ENE,68,9.2,9.2,28,0.00,CLR,,0.00,WeatherDisplay:10.37,2013-04-24 16:53:00,
2013-04-24 19:54:00,70.0,35.4,30.03,NNE,22,9.2,9.2,28,0.00,CLR,,0.00,WeatherDisplay:10.37,2013-04-24 16:54:00,
2013-04-24 19:58:00,69.8,35.2,30.03,NNE,22,5.8,5.8,28,0.00,CLR,,0.00,WeatherDisplay:10.37,2013-04-24 16:58:00,
2013-04-24 19:59:00,69.6,35.0,30.03,NNE,22,5.8,5.8,28,0.00,CLR,,0.00,WeatherDisplay:10.37,2013-04-24 16:59:00,
2013-04-24 20:00:00,69.6,35.0,30.03,North,0,5.9,5.9,28,0.00,CLR,,0.00,WeatherDisplay:10.37,2013-04-24 17:00:00,
2013-04-24 20:03:00,69.3,34.7,30.03,NNE,22,6.0,6.0,28,0.00,CLR,,0.00,WeatherDisplay:10.37,2013-04-24 17:03:00,
2013-04-24 20:04:00,69.3,34.7,30.03,NNE,22,8.5,8.5,28,0.00,CLR,,0.00,WeatherDisplay:10.37,2013-04-24 17:04:00,
2013-04-24 20:05:00,69.3,34.7,30.03,NNE,22,8.1,8.1,28,0.00,CLR,,0.00,WeatherDisplay:10.37,2013-04-24 17:05:00,
2013-04-24 20:09:00,68.9,37.0,30.03,NNE,22,9.2,9.2,31,0.00,CLR,,0.00,WeatherDisplay:10.37,2013-04-24 17:09:00,
2013-04-24 20:10:00,68.9,34.4,30.03,NNW,338,5.8,5.8,28,0.00,CLR,,0.00,WeatherDisplay:10.37,2013-04-24 17:10:00,
2013-04-24 20:14:00,68.7,36.8,30.03,NNE,22,5.9,5.9,31,0.00,CLR,,0.00,WeatherDisplay:10.37,2013-04-24 17:14:00,
2013-04-24 20:15:00,68.7,36.8,30.03,NNE,22,5.8,5.8,31,0.00,CLR,,0.00,WeatherDisplay:10.37,2013-04-24 17:15:00,
2013-04-24 20:19:00,68.5,36.7,30.03,NE,45,8.1,8.1,31,0.00,CLR,,0.00,WeatherDisplay:10.37,2013-04-24 17:19:00,
2013-04-24 20:20:00,68.5,36.7,30.03,NNE,19,6.0,9.0,31,0.00,CLR,,0.00,WeatherDisplay:10.37,2013-04-24 17:20:00,
2013-04-24 20:24:00,68.4,36.5,30.03,NNE,22,9.2,9.2,31,0.00,CLR,,0.00,WeatherDisplay:10.37,2013-04-24 17:24:00,
2013-04-24 20:25:00,68.4,36.5,30.03,NNE,26,7.0,10.0,31,0.00,CLR,,0.00,WeatherDisplay:10.37,2013-04-24 17:25:00,
2013-04-24 20:29:00,68.4,36.5,30.03,NNE,22,8.1,8.1,31,0.00,CLR,,0.00,WeatherDisplay:10.37,2013-04-24 17:29:00,
2013-04-24 20:30:00,68.4,36.5,30.03,NNE,26,7.0,10.0,31,0.00,CLR,,0.00,WeatherDisplay:10.37,2013-04-24 17:30:00,
2013-04-24 20:35:00,68.2,36.4,30.03,NNE,22,8.1,8.1,31,0.00,CLR,,0.00,WeatherDisplay:10.37,2013-04-24 17:35:00,
2013-04-24 20:40:00,68.2,36.4,30.03,East,90,5.8,5.8,31,0.00,CLR,,0.00,WeatherDisplay:10.37,2013-04-24 17:40:00,
2013-04-24 20:45:00,68.0,36.2,30.03,East,90,5.8,5.8,31,0.00,CLR,,0.00,WeatherDisplay:10.37,2013-04-24 17:45:00,
2013-04-24 20:46:00,68.0,36.2,30.03,NE,45,5.8,5.8,31,0.00,CLR,,0.00,WeatherDisplay:10.37,2013-04-24 17:46:00,
2013-04-24 20:50:00,68.0,36.2,30.03,NNE,22,5.8,5.8,31,0.00,CLR,,0.00,WeatherDisplay:10.37,2013-04-24 17:50:00,
2013-04-24 20:51:00,68.0,33.7,30.03,NNE,22,5.8,5.8,28,0.00,CLR,,0.00,WeatherDisplay:10.37,2013-04-24 17:51:00,
2013-04-24 20:55:00,68.2,33.8,30.03,North,0,6.9,6.9,28,0.00,CLR,,0.00,WeatherDisplay:10.37,2013-04-24 17:55:00,
2013-04-24 20:56:00,68.2,33.8,30.03,NNE,22,6.9,6.9,28,0.00,CLR,,0.00,WeatherDisplay:10.37,2013-04-24 17:56:00,
2013-04-24 20:57:00,68.2,33.8,30.03,NNE,22,6.9,6.9,28,0.00,CLR,,0.00,WeatherDisplay:10.37,2013-04-24 17:57:00,
2013-04-24 21:00:00,68.4,34.0,30.03,NNE,22,4.6,4.6,28,0.00,CLR,,0.00,WeatherDisplay:10.37,2013-04-24 18:00:00,
2013-04-24 21:01:00,68.4,34.0,30.03,NNE,22,4.6,4.6,28,0.00,CLR,,0.00,WeatherDisplay:10.37,2013-04-24 18:01:00,
2013-04-24 21:02:00,68.4,34.0,30.03,NNE,22,6.9,6.9,28,0.00,CLR,,0.00,WeatherDisplay:10.37,2013-04-24 18:02:00,
2013-04-24 21:05:00,68.5,34.1,30.03,ENE,68,7.1,7.1,28,0.00,CLR,,0.00,WeatherDisplay:10.37,2013-04-24 18:05:00,
2013-04-24 21:06:00,68.5,34.1,30.03,NNE,22,8.1,8.1,28,0.00,CLR,,0.00,WeatherDisplay:10.37,2013-04-24 18:06:00,
2013-04-24 21:07:00,68.5,34.1,30.03,NNW,338,5.8,5.8,28,0.00,CLR,,0.00,WeatherDisplay:10.37,2013-04-24 18:07:00,
2013-04-24 21:10:00,68.5,34.1,30.00,NNE,22,6.9,6.9,28,0.00,CLR,,0.00,WeatherDisplay:10.37,2013-04-24 18:10:00,
2013-04-24 21:11:00,68.7,34.3,30.00,NNW,338,5.8,5.8,28,0.00,CLR,,0.00,WeatherDisplay:10.37,2013-04-24 18:11:00,
2013-04-24 21:12:00,68.7,34.3,30.00,WNW,292,7.4,7.4,28,0.00,CLR,,0.00,WeatherDisplay:10.37,2013-04-24 18:12:00,
2013-04-24 21:13:00,68.7,34.3,30.00,NNW,338,6.9,6.9,28,0.00,CLR,,0.00,WeatherDisplay:10.37,2013-04-24 18:13:00,
2013-04-24 21:16:00,68.7,34.3,30.00,NNE,22,4.6,4.6,28,0.00,CLR,,0.00,WeatherDisplay:10.37,2013-04-24 18:16:00,
2013-04-24 21:17:00,68.7,34.3,30.00,NNW,338,4.6,4.6,28,0.00,CLR,,0.00,WeatherDisplay:10.37,2013-04-24 18:17:00,
2013-04-24 21:18:00,68.7,34.3,30.00,NNE,22,4.6,4.6,28,0.00,CLR,,0.00,WeatherDisplay:10.37,2013-04-24 18:18:00,
2013-04-24 21:21:00,68.7,34.3,30.00,NNE,22,5.8,5.8,28,0.00,CLR,,0.00,WeatherDisplay:10.37,2013-04-24 18:21:00,
2013-04-24 21:22:00,68.7,34.3,30.00,NNE,22,5.8,5.8,28,0.00,CLR,,0.00,WeatherDisplay:10.37,2013-04-24 18:22:00,
2013-04-24 21:24:00,68.5,34.1,30.03,North,0,4.6,4.6,28,0.00,CLR,,0.00,WeatherDisplay:10.37,2013-04-24 18:24:00,
2013-04-24 21:26:00,68.5,34.1,30.03,NNE,22,3.6,3.6,28,0.00,CLR,,0.00,WeatherDisplay:10.37,2013-04-24 18:26:00,
2013-04-24 21:27:00,68.5,34.1,30.03,North,0,4.6,4.6,28,0.00,CLR,,0.00,WeatherDisplay:10.37,2013-04-24 18:27:00,
2013-04-24 21:30:00,68.5,34.1,30.03,NNE,22,2.6,2.6,28,0.00,CLR,,0.00,WeatherDisplay:10.37,2013-04-24 18:30:00,
2013-04-24 21:31:00,68.5,34.1,30.03,ENE,68,3.5,3.5,28,0.00,CLR,,0.00,WeatherDisplay:10.37,2013-04-24 18:31:00,
2013-04-24 21:32:00,68.4,34.0,30.03,North,0,4.0,4.0,28,0.00,CLR,,0.00,WeatherDisplay:10.37,2013-04-24 18:32:00,
2013-04-24 21:33:00,68.4,34.0,30.03,NNW,338,4.6,4.6,28,0.00,CLR,,0.00,WeatherDisplay:10.37,2013-04-24 18:33:00,
2013-04-24 21:35:00,68.4,34.0,30.03,NNE,22,4.6,4.6,28,0.00,CLR,,0.00,WeatherDisplay:10.37,2013-04-24 18:35:00,
2013-04-24 21:37:00,68.4,34.0,30.03,North,0,3.5,3.5,28,0.00,CLR,,0.00,WeatherDisplay:10.37,2013-04-24 18:37:00,
2013-04-24 21:39:00,68.4,34.0,30.03,NE,45,3.5,3.5,28,0.00,CLR,,0.00,WeatherDisplay:10.37,2013-04-24 18:39:00,
2013-04-24 21:40:00,68.4,34.0,30.03,ENE,68,3.5,3.5,28,0.00,CLR,,0.00,WeatherDisplay:10.37,2013-04-24 18:40:00,
2013-04-24 21:42:00,68.2,33.8,30.03,ENE,68,3.5,3.5,28,0.00,CLR,,0.00,WeatherDisplay:10.37,2013-04-24 18:42:00,
2013-04-24 21:44:00,68.2,33.8,30.03,NNE,22,3.5,3.5,28,0.00,CLR,,0.00,WeatherDisplay:10.37,2013-04-24 18:44:00,
2013-04-24 21:45:00,68.2,33.8,30.03,NNE,22,2.3,2.3,28,0.00,CLR,,0.00,WeatherDisplay:10.37,2013-04-24 18:45:00,
2013-04-24 21:47:00,68.2,33.8,30.03,ENE,68,5.6,0.0,28,0.00,CLR,,0.00,WeatherDisplay:10.37,2013-04-24 18:47:00,
2013-04-24 21:48:00,68.2,33.8,30.03,NE,45,3.8,3.8,28,0.00,CLR,,0.00,WeatherDisplay:10.37,2013-04-24 18:48:00,
2013-04-24 21:49:00,68.2,33.8,30.03,NE,45,6.0,6.0,28,0.00,CLR,,0.00,WeatherDisplay:10.37,2013-04-24 18:49:00,
2013-04-24 21:50:00,68.2,33.8,30.03,NNE,22,5.8,5.8,28,0.00,CLR,,0.00,WeatherDisplay:10.37,2013-04-24 18:50:00,
2013-04-24 21:52:00,68.4,34.0,30.03,NE,45,3.5,3.5,28,0.00,CLR,,0.00,WeatherDisplay:10.37,2013-04-24 18:52:00,
2013-04-24 21:53:00,68.4,34.0,30.03,NE,45,3.5,3.6,28,0.00,CLR,,0.00,WeatherDisplay:10.37,2013-04-24 18:53:00,
2013-04-24 21:54:00,68.4,34.0,30.03,NNE,22,4.6,4.6,28,0.00,CLR,,0.00,WeatherDisplay:10.37,2013-04-24 18:54:00,
2013-04-24 21:55:00,68.4,34.0,30.03,NNE,22,4.6,4.6,28,0.00,CLR,,0.00,WeatherDisplay:10.37,2013-04-24 18:55:00,
2013-04-24 21:57:00,68.4,34.0,30.03,NNW,338,4.6,4.6,28,0.00,CLR,,0.00,WeatherDisplay:10.37,2013-04-24 18:57:00,
2013-04-24 21:58:00,68.2,33.8,30.03,NNW,338,2.3,0.0,28,0.00,CLR,,0.00,WeatherDisplay:10.37,2013-04-24 18:58:00,
2013-04-24 21:59:00,68.2,33.8,30.03,NNW,338,3.5,3.5,28,0.00,CLR,,0.00,WeatherDisplay:10.37,2013-04-24 18:59:00,
2013-04-24 22:00:00,68.0,33.7,30.03,NNE,22,2.3,2.3,28,0.00,CLR,,0.00,WeatherDisplay:10.37,2013-04-24 19:00:00,
2013-04-24 22:03:00,68.0,33.7,30.03,NNW,338,3.8,3.8,28,0.00,CLR,,0.00,WeatherDisplay:10.37,2013-04-24 19:03:00,
2013-04-24 22:04:00,67.8,36.1,30.03,NNE,22,4.6,4.6,31,0.00,CLR,,0.00,WeatherDisplay:10.37,2013-04-24 19:04:00,
2013-04-24 22:06:00,67.6,35.9,30.03,NNW,338,2.9,2.9,31,0.00,CLR,,0.00,WeatherDisplay:10.37,2013-04-24 19:06:00,
2013-04-24 22:08:00,67.3,37.2,30.03,North,0,2.9,2.9,33,0.00,CLR,,0.00,WeatherDisplay:10.37,2013-04-24 19:08:00,
2013-04-24 22:09:00,67.3,37.2,30.03,North,0,3.5,3.5,33,0.00,CLR,,0.00,WeatherDisplay:10.37,2013-04-24 19:09:00,
2013-04-24 22:11:00,67.1,37.0,30.03,NNW,338,2.9,2.9,33,0.00,CLR,,0.00,WeatherDisplay:10.37,2013-04-24 19:11:00,
2013-04-24 22:13:00,66.7,37.5,30.03,NNW,338,2.3,2.3,34,0.00,CLR,,0.00,WeatherDisplay:10.37,2013-04-24 19:13:00,
2013-04-24 22:14:00,66.7,37.5,30.03,NW,315,2.4,2.4,34,0.00,CLR,,0.00,WeatherDisplay:10.37,2013-04-24 19:14:00,
2013-04-24 22:15:00,66.7,37.5,30.03,NW,315,2.3,2.3,34,0.00,CLR,,0.00,WeatherDisplay:10.37,2013-04-24 19:15:00,
2013-04-24 22:16:00,66.6,37.3,30.03,NW,315,2.3,2.3,34,0.00,CLR,,0.00,WeatherDisplay:10.37,2013-04-24 19:16:00,
2013-04-24 22:18:00,66.4,37.9,30.03,NNW,338,2.3,2.3,35,0.00,CLR,,0.00,WeatherDisplay:10.37,2013-04-24 19:18:00,
2013-04-24 22:19:00,66.4,37.9,30.03,NNW,338,2.6,2.6,35,0.00,CLR,,0.00,WeatherDisplay:10.37,2013-04-24 19:19:00,
2013-04-24 22:20:00,66.2,37.7,30.03,NNW,338,2.4,2.4,35,0.00,CLR,,0.00,WeatherDisplay:10.37,2013-04-24 19:20:00,
2013-04-24 22:21:00,66.2,38.4,30.03,NNW,338,2.3,2.3,36,0.00,CLR,,0.00,WeatherDisplay:10.37,2013-04-24 19:21:00,
2013-04-24 22:24:00,66.0,39.7,30.03,NNW,338,2.3,2.3,38,0.00,CLR,,0.00,WeatherDisplay:10.37,2013-04-24 19:24:00,
2013-04-24 22:25:00,66.0,39.0,30.03,NNW,338,2.3,2.3,37,0.00,CLR,,0.00,WeatherDisplay:10.37,2013-04-24 19:25:00,
2013-04-24 22:26:00,65.8,38.8,30.03,NNW,338,2.3,2.3,37,0.00,CLR,,0.00,WeatherDisplay:10.37,2013-04-24 19:26:00,
2013-04-24 22:29:00,65.8,38.8,30.03,NNW,338,1.4,1.4,37,0.00,CLR,,0.00,WeatherDisplay:10.37,2013-04-24 19:29:00,
2013-04-24 22:30:00,65.7,38.7,30.03,NNW,338,2.0,0.0,37,0.00,CLR,,0.00,WeatherDisplay:10.37,2013-04-24 19:30:00,
2013-04-24 22:31:00,65.7,38.7,30.03,NNW,338,2.3,2.3,37,0.00,CLR,,0.00,WeatherDisplay:10.37,2013-04-24 19:31:00,
2013-04-24 22:34:00,65.7,38.0,30.03,NNW,338,1.4,1.4,36,0.00,CLR,,0.00,WeatherDisplay:10.37,2013-04-24 19:34:00,
2013-04-24 22:35:00,65.7,38.0,30.03,NNW,338,1.0,2.0,36,0.00,CLR,,0.00,WeatherDisplay:10.37,2013-04-24 19:35:00,
2013-04-24 22:36:00,65.7,37.2,30.03,NNE,22,2.4,2.4,35,0.00,CLR,,0.00,WeatherDisplay:10.37,2013-04-24 19:36:00,
2013-04-24 22:37:00,65.7,37.2,30.03,North,0,2.3,2.3,35,0.00,CLR,,0.00,WeatherDisplay:10.37,2013-04-24 19:37:00,
2013-04-24 22:39:00,65.8,37.4,30.03,NW,315,0.0,0.0,35,0.00,CLR,,0.00,WeatherDisplay:10.37,2013-04-24 19:39:00,
2013-04-24 22:40:00,65.8,38.1,30.03,WSW,248,0.0,0.0,36,0.00,CLR,,0.00,WeatherDisplay:10.37,2013-04-24 19:40:00,
2013-04-24 22:41:00,65.8,38.1,30.03,WSW,248,0.0,0.0,36,0.00,CLR,,0.00,WeatherDisplay:10.37,2013-04-24 19:41:00,
2013-04-24 22:42:00,65.8,39.5,30.03,SW,225,0.9,0.0,38,0.00,CLR,,0.00,WeatherDisplay:10.37,2013-04-24 19:42:00,
2013-04-24 22:44:00,65.7,41.3,30.03,SSW,202,2.3,2.3,41,0.00,CLR,,0.00,WeatherDisplay:10.37,2013-04-24 19:44:00,
2013-04-24 22:45:00,65.7,41.9,30.03,SSW,202,2.3,2.3,42,0.00,CLR,,0.00,WeatherDisplay:10.37,2013-04-24 19:45:00,
2013-04-24 22:46:00,65.7,41.9,30.03,SSW,202,1.2,0.0,42,0.00,CLR,,0.00,WeatherDisplay:10.37,2013-04-24 19:46:00,
2013-04-24 22:47:00,65.5,41.8,30.03,SSW,202,0.0,0.0,42,0.00,CLR,,0.00,WeatherDisplay:10.37,2013-04-24 19:47:00,
2013-04-24 22:49:00,65.1,42.7,30.03,SSW,202,0.0,0.0,44,0.00,CLR,,0.00,WeatherDisplay:10.37,2013-04-24 19:49:00,
2013-04-24 22:50:00,65.1,42.7,30.03,SSW,202,0.0,0.0,44,0.00,CLR,,0.00,WeatherDisplay:10.37,2013-04-24 19:50:00,
2013-04-24 22:51:00,64.9,41.3,30.03,SSW,202,0.0,0.0,42,0.00,CLR,,0.00,WeatherDisplay:10.37,2013-04-24 19:51:00,
2013-04-24 22:52:00,64.8,41.7,30.03,SSW,202,0.0,0.0,43,0.00,CLR,,0.00,WeatherDisplay:10.37,2013-04-24 19:52:00,
2013-04-24 22:54:00,64.8,41.7,30.03,SSW,202,0.0,0.0,43,0.00,CLR,,0.00,WeatherDisplay:10.37,2013-04-24 19:54:00,
2013-04-24 22:55:00,64.4,42.6,30.03,SSW,202,0.0,0.0,45,0.00,CLR,,0.00,WeatherDisplay:10.37,2013-04-24 19:55:00,
2013-04-24 22:56:00,64.4,42.0,30.03,SSW,202,0.0,0.0,44,0.00,CLR,,0.00,WeatherDisplay:10.37,2013-04-24 19:56:00,
2013-04-24 22:57:00,64.4,42.0,30.03,SSW,202,0.0,0.0,44,0.00,CLR,,0.00,WeatherDisplay:10.37,2013-04-24 19:57:00,
2013-04-24 22:59:00,64.2,42.4,30.03,SSW,202,0.0,0.0,45,0.00,CLR,,0.00,WeatherDisplay:10.37,2013-04-24 19:59:00,
2013-04-24 23:01:00,64.2,42.4,30.03,SSW,202,0.0,0.0,45,0.00,CLR,,0.00,WeatherDisplay:10.37,2013-04-24 20:01:00,
2013-04-24 23:02:00,64.0,42.3,30.03,SSW,202,0.0,0.0,45,0.00,CLR,,0.00,WeatherDisplay:10.37,2013-04-24 20:02:00,
2013-04-24 23:03:00,64.0,42.3,30.03,SSW,202,0.0,0.0,45,0.00,CLR,,0.00,WeatherDisplay:10.37,2013-04-24 20:03:00,
2013-04-24 23:04:00,64.0,42.3,30.03,SSW,202,2.0,0.0,45,0.00,CLR,,0.00,WeatherDisplay:10.37,2013-04-24 20:04:00,
2013-04-24 23:06:00,64.2,42.4,30.03,SSW,202,2.0,0.0,45,0.00,CLR,,0.00,WeatherDisplay:10.37,2013-04-24 20:06:00,
2013-04-24 23:07:00,64.2,43.0,30.03,SSW,202,2.3,2.3,46,0.00,CLR,,0.00,WeatherDisplay:10.37,2013-04-24 20:07:00,
2013-04-24 23:08:00,64.2,43.0,30.00,SSW,202,2.3,2.3,46,0.00,CLR,,0.00,WeatherDisplay:10.37,2013-04-24 20:08:00,
2013-04-24 23:09:00,64.2,43.0,30.00,SSW,202,1.2,0.0,46,0.00,CLR,,0.00,WeatherDisplay:10.37,2013-04-24 20:09:00,
2013-04-24 23:11:00,64.0,42.8,30.00,SSW,202,0.0,0.0,46,0.00,CLR,,0.00,WeatherDisplay:10.37,2013-04-24 20:11:00,
2013-04-24 23:12:00,64.0,42.8,30.00,SSW,202,0.0,0.0,46,0.00,CLR,,0.00,WeatherDisplay:10.37,2013-04-24 20:12:00,
2013-04-24 23:13:00,64.0,43.4,30.00,SSW,202,0.0,0.0,47,0.00,CLR,,0.00,WeatherDisplay:10.37,2013-04-24 20:13:00,
2013-04-24 23:14:00,64.0,43.4,30.00,SSW,202,0.0,0.0,47,0.00,CLR,,0.00,WeatherDisplay:10.37,2013-04-24 20:14:00,
2013-04-24 23:16:00,63.9,43.2,30.00,SSW,202,0.0,0.0,47,0.00,CLR,,0.00,WeatherDisplay:10.37,2013-04-24 20:16:00,
2013-04-24 23:17:00,63.9,43.2,30.00,SSW,202,0.0,0.0,47,0.00,CLR,,0.00,WeatherDisplay:10.37,2013-04-24 20:17:00,
2013-04-24 23:18:00,63.7,43.1,30.00,SSW,202,0.0,0.0,47,0.00,CLR,,0.00,WeatherDisplay:10.37,2013-04-24 20:18:00,
2013-04-24 23:19:00,63.7,43.1,30.00,SSW,202,1.2,1.2,47,0.00,CLR,,0.00,WeatherDisplay:10.37,2013-04-24 20:19:00,
2013-04-24 23:21:00,63.9,43.8,30.00,SSW,202,2.3,2.3,48,0.00,CLR,,0.00,WeatherDisplay:10.37,2013-04-24 20:21:00,
2013-04-24 23:22:00,63.9,44.3,30.00,South,180,2.3,2.3,49,0.00,CLR,,0.00,WeatherDisplay:10.37,2013-04-24 20:22:00,
2013-04-24 23:23:00,63.9,44.3,30.00,South,180,2.3,2.3,49,0.00,CLR,,0.00,WeatherDisplay:10.37,2013-04-24 20:23:00,
2013-04-24 23:25:00,63.9,44.3,30.00,SSE,158,2.3,2.3,49,0.00,CLR,,0.00,WeatherDisplay:10.37,2013-04-24 20:25:00,
2013-04-24 23:26:00,63.7,44.7,30.00,SSE,158,2.3,2.3,50,0.00,CLR,,0.00,WeatherDisplay:10.37,2013-04-24 20:26:00,
2013-04-24 23:27:00,63.7,44.7,30.00,SSE,158,2.3,0.0,50,0.00,CLR,,0.00,WeatherDisplay:10.37,2013-04-24 20:27:00,
2013-04-24 23:28:00,63.7,44.2,30.00,SSE,158,0.0,0.0,49,0.00,CLR,,0.00,WeatherDisplay:10.37,2013-04-24 20:28:00,
2013-04-24 23:30:00,63.5,44.0,30.00,SSE,158,0.0,0.0,49,0.00,CLR,,0.00,WeatherDisplay:10.37,2013-04-24 20:30:00,
2013-04-24 23:31:00,63.3,43.8,30.00,SSE,158,0.0,0.0,49,0.00,CLR,,0.00,WeatherDisplay:10.37,2013-04-24 20:31:00,
2013-04-24 23:32:00,63.1,43.7,30.00,SSE,158,0.0,0.0,49,0.00,CLR,,0.00,WeatherDisplay:10.37,2013-04-24 20:32:00,
2013-04-24 23:33:00,63.1,43.7,30.00,SSE,158,0.0,0.0,49,0.00,CLR,,0.00,WeatherDisplay:10.37,2013-04-24 20:33:00,
2013-04-24 23:35:00,63.1,43.7,30.00,SSE,158,0.0,0.0,49,0.00,CLR,,0.00,WeatherDisplay:10.37,2013-04-24 20:35:00,
2013-04-24 23:37:00,63.0,43.5,30.00,SSE,158,0.0,0.0,49,0.00,CLR,,0.00,WeatherDisplay:10.37,2013-04-24 20:37:00,
2013-04-24 23:38:00,63.0,43.5,30.00,SSE,158,0.0,0.0,49,0.00,CLR,,0.00,WeatherDisplay:10.37,2013-04-24 20:38:00,
2013-04-24 23:40:00,62.8,43.9,30.03,SSE,158,0.0,0.0,50,0.00,CLR,,0.00,WeatherDisplay:10.37,2013-04-24 20:40:00,
2013-04-24 23:42:00,62.8,43.9,30.03,SSE,158,0.0,0.0,50,0.00,CLR,,0.00,WeatherDisplay:10.37,2013-04-24 20:42:00,
2013-04-24 23:43:00,62.8,43.9,30.03,SSE,158,0.0,0.0,50,0.00,CLR,,0.00,WeatherDisplay:10.37,2013-04-24 20:43:00,
2013-04-24 23:44:00,62.8,43.9,30.03,SSE,158,0.0,0.0,50,0.00,CLR,,0.00,WeatherDisplay:10.37,2013-04-24 20:44:00,
2013-04-24 23:45:00,62.6,43.7,30.03,SSE,158,0.0,0.0,50,0.00,CLR,,0.00,WeatherDisplay:10.37,2013-04-24 20:45:00,
2013-04-24 23:48:00,62.6,43.7,30.03,SSE,158,0.0,0.0,50,0.00,CLR,,0.00,WeatherDisplay:10.37,2013-04-24 20:48:00,
2013-04-24 23:49:00,62.6,43.7,30.03,SSE,158,0.0,0.0,50,0.00,CLR,,0.00,WeatherDisplay:10.37,2013-04-24 20:49:00,
2013-04-24 23:51:00,62.6,43.7,30.03,SSE,158,0.0,0.0,50,0.00,CLR,,0.00,WeatherDisplay:10.37,2013-04-24 20:51:00,
2013-04-24 23:53:00,62.6,43.7,30.03,SSE,158,0.0,0.0,50,0.00,CLR,,0.00,WeatherDisplay:10.37,2013-04-24 20:53:00,
2013-04-24 23:54:00,62.6,43.7,30.03,SSE,158,0.0,0.0,50,0.00,CLR,,0.00,WeatherDisplay:10.37,2013-04-24 20:54:00,
2013-04-24 23:56:00,62.6,43.7,30.03,SSE,158,0.0,0.0,50,0.00,CLR,,0.00,WeatherDisplay:10.37,2013-04-24 20:56:00,
2013-04-24 23:58:00,62.4,44.0,30.03,SSE,158,0.0,0.0,51,0.00,CLR,,0.00,WeatherDisplay:10.37,2013-04-24 20:58:00,
2013-04-24 23:59:00,62.4,44.0,30.03,SSE,158,0.0,0.0,51,0.00,CLR,,0.00,WeatherDisplay:10.37,2013-04-24 20:59:00,